Wetterdaten: Samstag, 21.06.2014
Datum Zeit Temp. Aussen +5cm Feuchte Auss Luftdruck Regen Sonnenschein Regendauer UV Solar Windben
21.06.2014 00:00 13,2 C 11,7 C 86 % 1019,4 hPa 0,0 l/m 0 min 0 min 0,0 UV-I 0 W/m 0,0 km/h (0 Bft)
21.06.2014 00:02 13,2 C 11,7 C 86 % 1019,4 hPa 0,0 l/m 0 min 0 min 0,0 UV-I 0 W/m 0,0 km/h (0 Bft)
21.06.2014 00:06 12,9 C 11,1 C 87 % 1019,4 hPa 0,0 l/m 0 min 0 min 0,0 UV-I 0 W/m 0,0 km/h (0 Bft)
21.06.2014 00:08 12,8 C 11,1 C 87 % 1019,4 hPa 0,0 l/m 0 min 0 min 0,0 UV-I 0 W/m 0,0 km/h (0 Bft)
21.06.2014 00:10 12,8 C 11,1 C 87 % 1019,4 hPa 0,0 l/m 0 min 0 min 0,0 UV-I 0 W/m 0,0 km/h (0 Bft)
21.06.2014 00:12 12,7 C 11,1 C 88 % 1019,4 hPa 0,0 l/m 0 min 0 min 0,0 UV-I 0 W/m 6,3 km/h (2 Bft)
21.06.2014 00:14 12,7 C 11,1 C 88 % 1019,4 hPa 0,0 l/m 0 min 0 min 0,0 UV-I 0 W/m 0,0 km/h (0 Bft)
21.06.2014 00:16 12,6 C 11,1 C 88 % 1019,4 hPa 0,0 l/m 0 min 0 min 0,0 UV-I 0 W/m 0,0 km/h (0 Bft)
21.06.2014 00:18 12,6 C 11,1 C 88 % 1019,4 hPa 0,0 l/m 0 min 0 min 0,0 UV-I 0 W/m 0,0 km/h (0 Bft)
21.06.2014 00:20 12,4 C 10,6 C 88 % 1019,5 hPa 0,0 l/m 0 min 0 min 0,0 UV-I 0 W/m 2,1 km/h (1 Bft)
21.06.2014 00:22 12,4 C 10,6 C 89 % 1019,4 hPa 0,0 l/m 0 min 0 min 0,0 UV-I 0 W/m 0,0 km/h (0 Bft)
21.06.2014 00:24 12,3 C 10,6 C 89 % 1019,4 hPa 0,0 l/m 0 min 0 min 0,0 UV-I 0 W/m 2,1 km/h (1 Bft)
21.06.2014 00:26 12,3 C 10,6 C 89 % 1019,4 hPa 0,0 l/m 0 min 0 min 0,0 UV-I 0 W/m 0,0 km/h (0 Bft)
21.06.2014 00:28 12,2 C 10,6 C 89 % 1019,4 hPa 0,0 l/m 0 min 0 min 0,0 UV-I 0 W/m 0,0 km/h (0 Bft)
21.06.2014 00:30 12,2 C 10,6 C 89 % 1019,4 hPa 0,0 l/m 0 min 0 min 0,0 UV-I 0 W/m 4,2 km/h (1 Bft)
21.06.2014 00:32 12,2 C 10,6 C 89 % 1019,4 hPa 0,0 l/m 0 min 0 min 0,0 UV-I 0 W/m 2,1 km/h (1 Bft)
21.06.2014 00:34 12,2 C 10,6 C 90 % 1019,4 hPa 0,0 l/m 0 min 0 min 0,0 UV-I 0 W/m 0,0 km/h (0 Bft)
21.06.2014 00:36 12,1 C 10,6 C 90 % 1019,4 hPa 0,0 l/m 0 min 0 min 0,0 UV-I 0 W/m 0,0 km/h (0 Bft)
21.06.2014 00:38 12,1 C 10,6 C 90 % 1019,4 hPa 0,0 l/m 0 min 0 min 0,0 UV-I 0 W/m 0,0 km/h (0 Bft)
21.06.2014 00:40 12,1 C 10,6 C 90 % 1019,4 hPa 0,0 l/m 0 min 0 min 0,0 UV-I 0 W/m 0,0 km/h (0 Bft)
21.06.2014 00:42 12,1 C 10,6 C 90 % 1019,4 hPa 0,0 l/m 0 min 0 min 0,0 UV-I 0 W/m 0,0 km/h (0 Bft)
21.06.2014 00:44 12,1 C 10,6 C 90 % 1019,4 hPa 0,0 l/m 0 min 0 min 0,0 UV-I 0 W/m 0,0 km/h (0 Bft)
21.06.2014 00:46 12,1 C 10,6 C 90 % 1019,4 hPa 0,0 l/m 0 min 0 min 0,0 UV-I 0 W/m 0,0 km/h (0 Bft)
21.06.2014 00:48 12,1 C 10,6 C 90 % 1019,4 hPa 0,0 l/m 0 min 0 min 0,0 UV-I 0 W/m 0,0 km/h (0 Bft)
21.06.2014 00:50 12,1 C 10,6 C 90 % 1019,4 hPa 0,0 l/m 0 min 0 min 0,0 UV-I 0 W/m 0,0 km/h (0 Bft)
21.06.2014 00:52 12,1 C 10,6 C 90 % 1019,4 hPa 0,0 l/m 0 min 0 min 0,0 UV-I 0 W/m 0,0 km/h (0 Bft)
21.06.2014 00:54 12,2 C 10,6 C 90 % 1019,4 hPa 0,0 l/m 0 min 0 min 0,0 UV-I 0 W/m 0,0 km/h (0 Bft)
21.06.2014 00:56 12,2 C 10,6 C 91 % 1019,3 hPa 0,0 l/m 0 min 0 min 0,0 UV-I 0 W/m 0,0 km/h (0 Bft)
21.06.2014 00:58 12,2 C 10,6 C 91 % 1019,3 hPa 0,0 l/m 0 min 0 min 0,0 UV-I 0 W/m 0,0 km/h (0 Bft)
21.06.2014 01:00 12,2 C 10,6 C 91 % 1019,4 hPa 0,0 l/m 0 min 0 min 0,0 UV-I 0 W/m 0,0 km/h (0 Bft)
21.06.2014 01:02 12,2 C 11,1 C 91 % 1019,3 hPa 0,0 l/m 0 min 0 min 0,0 UV-I 0 W/m 0,0 km/h (0 Bft)
21.06.2014 01:04 12,2 C 11,1 C 91 % 1019,3 hPa 0,0 l/m 0 min 0 min 0,0 UV-I 0 W/m 0,0 km/h (0 Bft)
21.06.2014 01:06 12,3 C 11,1 C 91 % 1019,3 hPa 0,0 l/m 0 min 0 min 0,0 UV-I 0 W/m 2,1 km/h (1 Bft)
21.06.2014 01:08 12,3 C 11,1 C 91 % 1019,3 hPa 0,0 l/m 0 min 0 min 0,0 UV-I 0 W/m 0,0 km/h (0 Bft)
21.06.2014 01:10 12,3 C 11,1 C 91 % 1019,3 hPa 0,0 l/m 0 min 0 min 0,0 UV-I 0 W/m 0,0 km/h (0 Bft)
21.06.2014 01:12 12,3 C 11,1 C 91 % 1019,3 hPa 0,0 l/m 0 min 0 min 0,0 UV-I 0 W/m 0,0 km/h (0 Bft)
21.06.2014 01:14 12,3 C 11,1 C 91 % 1019,3 hPa 0,0 l/m 0 min 0 min 0,0 UV-I 0 W/m 0,0 km/h (0 Bft)
21.06.2014 01:16 12,4 C 11,1 C 91 % 1019,3 hPa 0,0 l/m 0 min 0 min 0,0 UV-I 0 W/m 0,0 km/h (0 Bft)
21.06.2014 01:18 12,4 C 11,1 C 91 % 1019,3 hPa 0,0 l/m 0 min 0 min 0,0 UV-I 0 W/m 0,0 km/h (0 Bft)
21.06.2014 01:20 12,4 C 11,1 C 90 % 1019,3 hPa 0,0 l/m 0 min 0 min 0,0 UV-I 0 W/m 0,0 km/h (0 Bft)
21.06.2014 01:22 12,4 C 11,1 C 90 % 1019,4 hPa 0,0 l/m 0 min 0 min 0,0 UV-I 0 W/m 0,0 km/h (0 Bft)
21.06.2014 01:24 12,4 C 11,1 C 90 % 1019,3 hPa 0,0 l/m 0 min 0 min 0,0 UV-I 0 W/m 0,0 km/h (0 Bft)
21.06.2014 01:26 12,4 C 11,1 C 90 % 1019,4 hPa 0,0 l/m 0 min 0 min 0,0 UV-I 0 W/m 0,0 km/h (0 Bft)
21.06.2014 01:28 12,4 C 11,1 C 90 % 1019,3 hPa 0,0 l/m 0 min 0 min 0,0 UV-I 0 W/m 0,0 km/h (0 Bft)
21.06.2014 01:30 12,4 C 11,1 C 90 % 1019,3 hPa 0,0 l/m 0 min 0 min 0,0 UV-I 0 W/m 0,0 km/h (0 Bft)
21.06.2014 01:32 12,4 C 11,1 C 90 % 1019,3 hPa 0,0 l/m 0 min 0 min 0,0 UV-I 0 W/m 0,0 km/h (0 Bft)
21.06.2014 01:34 12,4 C 11,1 C 90 % 1019,3 hPa 0,0 l/m 0 min 0 min 0,0 UV-I 0 W/m 0,0 km/h (0 Bft)
21.06.2014 01:36 12,4 C 11,1 C 90 % 1019,3 hPa 0,0 l/m 0 min 0 min 0,0 UV-I 0 W/m 0,0 km/h (0 Bft)
21.06.2014 01:38 12,4 C 11,1 C 90 % 1019,3 hPa 0,0 l/m 0 min 0 min 0,0 UV-I 0 W/m 0,0 km/h (0 Bft)
21.06.2014 01:40 12,4 C 11,1 C 90 % 1019,3 hPa 0,0 l/m 0 min 0 min 0,0 UV-I 0 W/m 0,0 km/h (0 Bft)
21.06.2014 01:42 12,4 C 11,1 C 90 % 1019,3 hPa 0,0 l/m 0 min 0 min 0,0 UV-I 0 W/m 0,0 km/h (0 Bft)
21.06.2014 01:44 12,4 C 11,1 C 90 % 1019,3 hPa 0,0 l/m 0 min 0 min 0,0 UV-I 0 W/m 0,0 km/h (0 Bft)
21.06.2014 01:46 12,4 C 11,1 C 90 % 1019,3 hPa 0,0 l/m 0 min 0 min 0,0 UV-I 0 W/m 0,0 km/h (0 Bft)
21.06.2014 01:48 12,4 C 11,1 C 90 % 1019,3 hPa 0,0 l/m 0 min 0 min 0,0 UV-I 0 W/m 0,0 km/h (0 Bft)
21.06.2014 01:50 12,4 C 11,1 C 90 % 1019,3 hPa 0,0 l/m 0 min 0 min 0,0 UV-I 0 W/m 0,0 km/h (0 Bft)
21.06.2014 01:52 12,4 C 11,1 C 90 % 1019,3 hPa 0,0 l/m 0 min 0 min 0,0 UV-I 0 W/m 0,0 km/h (0 Bft)
21.06.2014 01:54 12,4 C 11,1 C 90 % 1019,3 hPa 0,0 l/m 0 min 0 min 0,0 UV-I 0 W/m 0,0 km/h (0 Bft)
21.06.2014 01:56 12,4 C 11,1 C 90 % 1019,3 hPa 0,0 l/m 0 min 0 min 0,0 UV-I 0 W/m 0,0 km/h (0 Bft)
21.06.2014 01:58 12,4 C 11,1 C 90 % 1019,4 hPa 0,0 l/m 0 min 0 min 0,0 UV-I 0 W/m 0,0 km/h (0 Bft)
21.06.2014 02:00 12,4 C 11,1 C 90 % 1019,4 hPa 0,0 l/m 0 min 0 min 0,0 UV-I 0 W/m 0,0 km/h (0 Bft)
21.06.2014 02:02 12,4 C 11,1 C 90 % 1019,4 hPa 0,0 l/m 0 min 0 min 0,0 UV-I 0 W/m 2,1 km/h (1 Bft)
21.06.2014 02:04 12,4 C 11,1 C 90 % 1019,3 hPa 0,0 l/m 0 min 0 min 0,0 UV-I 0 W/m 0,0 km/h (0 Bft)
21.06.2014 02:06 12,5 C 11,1 C 90 % 1019,3 hPa 0,0 l/m 0 min 0 min 0,0 UV-I 0 W/m 2,1 km/h (1 Bft)
21.06.2014 02:08 12,5 C 11,1 C 90 % 1019,3 hPa 0,0 l/m 0 min 0 min 0,0 UV-I 0 W/m 0,0 km/h (0 Bft)
21.06.2014 02:10 12,5 C 11,1 C 90 % 1019,3 hPa 0,0 l/m 0 min 0 min 0,0 UV-I 0 W/m 0,0 km/h (0 Bft)
21.06.2014 02:12 12,5 C 11,1 C 90 % 1019,3 hPa 0,0 l/m 0 min 0 min 0,0 UV-I 0 W/m 0,0 km/h (0 Bft)
21.06.2014 02:14 12,5 C 11,1 C 89 % 1019,2 hPa 0,0 l/m 0 min 0 min 0,0 UV-I 0 W/m 0,0 km/h (0 Bft)
21.06.2014 02:16 12,4 C 11,1 C 89 % 1019,2 hPa 0,0 l/m 0 min 0 min 0,0 UV-I 0 W/m 0,0 km/h (0 Bft)
21.06.2014 02:18 12,4 C 11,1 C 89 % 1019,2 hPa 0,0 l/m 0 min 0 min 0,0 UV-I 0 W/m 0,0 km/h (0 Bft)
21.06.2014 02:20 12,4 C 11,1 C 89 % 1019,2 hPa 0,0 l/m 0 min 0 min 0,0 UV-I 0 W/m 0,0 km/h (0 Bft)
21.06.2014 02:22 12,4 C 11,1 C 89 % 1019,2 hPa 0,0 l/m 0 min 0 min 0,0 UV-I 0 W/m 0,0 km/h (0 Bft)
21.06.2014 02:24 12,4 C 11,1 C 89 % 1019,1 hPa 0,0 l/m 0 min 0 min 0,0 UV-I 0 W/m 0,0 km/h (0 Bft)
21.06.2014 02:26 12,4 C 11,1 C 89 % 1019,2 hPa 0,0 l/m 0 min 0 min 0,0 UV-I 0 W/m 0,0 km/h (0 Bft)
21.06.2014 02:28 12,4 C 11,1 C 89 % 1019,2 hPa 0,0 l/m 0 min 0 min 0,0 UV-I 0 W/m 0,0 km/h (0 Bft)
21.06.2014 02:30 12,3 C 11,1 C 89 % 1019,2 hPa 0,0 l/m 0 min 0 min 0,0 UV-I 0 W/m 0,0 km/h (0 Bft)
21.06.2014 02:32 12,3 C 11,1 C 89 % 1019,2 hPa 0,0 l/m 0 min 0 min 0,0 UV-I 0 W/m 0,0 km/h (0 Bft)
21.06.2014 02:34 12,3 C 11,1 C 89 % 1019,2 hPa 0,0 l/m 0 min 0 min 0,0 UV-I 0 W/m 0,0 km/h (0 Bft)
21.06.2014 02:36 12,3 C 10,6 C 89 % 1019,2 hPa 0,0 l/m 0 min 0 min 0,0 UV-I 0 W/m 0,0 km/h (0 Bft)
21.06.2014 02:38 12,2 C 10,6 C 90 % 1019,2 hPa 0,0 l/m 0 min 0 min 0,0 UV-I 0 W/m 0,0 km/h (0 Bft)
21.06.2014 02:40 12,2 C 10,6 C 90 % 1019,2 hPa 0,0 l/m 0 min 0 min 0,0 UV-I 0 W/m 0,0 km/h (0 Bft)
21.06.2014 02:42 12,1 C 10,6 C 90 % 1019,2 hPa 0,0 l/m 0 min 0 min 0,0 UV-I 0 W/m 0,0 km/h (0 Bft)
21.06.2014 02:44 12,1 C 10,6 C 90 % 1019,2 hPa 0,0 l/m 0 min 0 min 0,0 UV-I 0 W/m 0,0 km/h (0 Bft)
21.06.2014 02:46 12,0 C 10,6 C 90 % 1019,3 hPa 0,0 l/m 0 min 0 min 0,0 UV-I 0 W/m 2,1 km/h (1 Bft)
21.06.2014 02:48 11,9 C 10,0 C 90 % 1019,3 hPa 0,0 l/m 0 min 0 min 0,0 UV-I 0 W/m 0,0 km/h (0 Bft)
21.06.2014 02:50 11,8 C 10,0 C 90 % 1019,2 hPa 0,0 l/m 0 min 0 min 0,0 UV-I 0 W/m 0,0 km/h (0 Bft)
21.06.2014 02:52 11,8 C 10,0 C 90 % 1019,3 hPa 0,0 l/m 0 min 0 min 0,0 UV-I 0 W/m 0,0 km/h (0 Bft)
21.06.2014 02:54 11,7 C 10,0 C 90 % 1019,3 hPa 0,0 l/m 0 min 0 min 0,0 UV-I 0 W/m 0,0 km/h (0 Bft)
21.06.2014 02:56 11,7 C 10,0 C 91 % 1019,3 hPa 0,0 l/m 0 min 0 min 0,0 UV-I 0 W/m 0,0 km/h (0 Bft)
21.06.2014 02:58 11,7 C 10,0 C 91 % 1019,2 hPa 0,0 l/m 0 min 0 min 0,0 UV-I 0 W/m 6,3 km/h (2 Bft)
21.06.2014 03:00 11,6 C 10,0 C 91 % 1019,2 hPa 0,0 l/m 0 min 0 min 0,0 UV-I 0 W/m 4,2 km/h (1 Bft)
21.06.2014 03:02 11,6 C 10,0 C 91 % 1019,2 hPa 0,0 l/m 0 min 0 min 0,0 UV-I 0 W/m 0,0 km/h (0 Bft)
21.06.2014 03:04 11,6 C 10,0 C 91 % 1019,2 hPa 0,0 l/m 0 min 0 min 0,0 UV-I 0 W/m 0,0 km/h (0 Bft)
21.06.2014 03:06 11,5 C 10,0 C 91 % 1019,2 hPa 0,0 l/m 0 min 0 min 0,0 UV-I 0 W/m 0,0 km/h (0 Bft)
21.06.2014 03:08 11,4 C 10,0 C 91 % 1019,2 hPa 0,0 l/m 0 min 0 min 0,0 UV-I 0 W/m 6,3 km/h (2 Bft)
21.06.2014 03:10 11,4 C 10,0 C 91 % 1019,2 hPa 0,0 l/m 0 min 0 min 0,0 UV-I 0 W/m 0,0 km/h (0 Bft)
21.06.2014 03:12 11,4 C 10,0 C 91 % 1019,2 hPa 0,0 l/m 0 min 0 min 0,0 UV-I 0 W/m 0,0 km/h (0 Bft)
21.06.2014 03:14 11,4 C 10,0 C 92 % 1019,2 hPa 0,0 l/m 0 min 0 min 0,0 UV-I 0 W/m 0,0 km/h (0 Bft)
21.06.2014 03:16 11,3 C 9,4 C 92 % 1019,2 hPa 0,0 l/m 0 min 0 min 0,0 UV-I 0 W/m 0,0 km/h (0 Bft)
21.06.2014 03:18 11,3 C 9,4 C 91 % 1019,2 hPa 0,0 l/m 0 min 0 min 0,0 UV-I 0 W/m 0,0 km/h (0 Bft)
21.06.2014 03:20 11,2 C 9,4 C 92 % 1019,3 hPa 0,0 l/m 0 min 0 min 0,0 UV-I 0 W/m 0,0 km/h (0 Bft)
21.06.2014 03:22 11,2 C 9,4 C 92 % 1019,2 hPa 0,0 l/m 0 min 0 min 0,0 UV-I 0 W/m 0,0 km/h (0 Bft)
21.06.2014 03:24 11,1 C 9,4 C 92 % 1019,2 hPa 0,0 l/m 0 min 0 min 0,0 UV-I 0 W/m 0,0 km/h (0 Bft)
21.06.2014 03:26 11,1 C 9,4 C 92 % 1019,2 hPa 0,0 l/m 0 min 0 min 0,0 UV-I 0 W/m 0,0 km/h (0 Bft)
21.06.2014 03:28 11,1 C 9,4 C 92 % 1019,2 hPa 0,0 l/m 0 min 0 min 0,0 UV-I 0 W/m 0,0 km/h (0 Bft)
21.06.2014 03:30 11,0 C 9,4 C 92 % 1019,2 hPa 0,0 l/m 0 min 0 min 0,0 UV-I 0 W/m 0,0 km/h (0 Bft)
21.06.2014 03:32 11,0 C 9,4 C 92 % 1019,2 hPa 0,0 l/m 0 min 0 min 0,0 UV-I 0 W/m 0,0 km/h (0 Bft)
21.06.2014 03:34 10,9 C 9,4 C 92 % 1019,2 hPa 0,0 l/m 0 min 0 min 0,0 UV-I 0 W/m 0,0 km/h (0 Bft)
21.06.2014 03:36 10,9 C 9,4 C 92 % 1019,2 hPa 0,0 l/m 0 min 0 min 0,0 UV-I 0 W/m 2,1 km/h (1 Bft)
21.06.2014 03:38 10,9 C 9,4 C 92 % 1019,2 hPa 0,0 l/m 0 min 0 min 0,0 UV-I 0 W/m 0,0 km/h (0 Bft)
21.06.2014 03:40 10,9 C 9,4 C 93 % 1019,2 hPa 0,0 l/m 0 min 0 min 0,0 UV-I 0 W/m 0,0 km/h (0 Bft)
21.06.2014 03:42 10,8 C 9,4 C 93 % 1019,3 hPa 0,0 l/m 0 min 0 min 0,0 UV-I 0 W/m 0,0 km/h (0 Bft)
21.06.2014 03:44 10,8 C 9,4 C 93 % 1019,3 hPa 0,0 l/m 0 min 0 min 0,0 UV-I 0 W/m 0,0 km/h (0 Bft)
21.06.2014 03:46 10,8 C 9,4 C 93 % 1019,3 hPa 0,0 l/m 0 min 0 min 0,0 UV-I 0 W/m 0,0 km/h (0 Bft)
21.06.2014 03:48 10,7 C 9,4 C 93 % 1019,3 hPa 0,0 l/m 0 min 0 min 0,0 UV-I 0 W/m 0,0 km/h (0 Bft)
21.06.2014 03:50 10,7 C 8,9 C 93 % 1019,3 hPa 0,0 l/m 0 min 0 min 0,0 UV-I 0 W/m 0,0 km/h (0 Bft)
21.06.2014 03:52 10,7 C 8,9 C 93 % 1019,2 hPa 0,0 l/m 0 min 0 min 0,0 UV-I 0 W/m 6,3 km/h (2 Bft)
21.06.2014 03:54 10,7 C 8,9 C 93 % 1019,2 hPa 0,0 l/m 0 min 0 min 0,0 UV-I 0 W/m 0,0 km/h (0 Bft)
21.06.2014 03:56 10,6 C 8,9 C 93 % 1019,2 hPa 0,0 l/m 0 min 0 min 0,0 UV-I 0 W/m 2,1 km/h (1 Bft)
21.06.2014 03:58 10,6 C 8,9 C 93 % 1019,3 hPa 0,0 l/m 0 min 0 min 0,0 UV-I 0 W/m 0,0 km/h (0 Bft)
21.06.2014 04:00 10,6 C 8,9 C 93 % 1019,3 hPa 0,0 l/m 0 min 0 min 0,0 UV-I 0 W/m 2,1 km/h (1 Bft)
21.06.2014 04:05 10,5 C 8,9 C 94 % 1019,2 hPa 0,0 l/m 0 min 0 min 0,0 UV-I 0 W/m 0,0 km/h (0 Bft)
21.06.2014 04:06 10,5 C 8,9 C 93 % 1019,2 hPa 0,0 l/m 0 min 0 min 0,0 UV-I 0 W/m 0,0 km/h (0 Bft)
21.06.2014 04:08 10,4 C 8,9 C 93 % 1019,2 hPa 0,0 l/m 0 min 0 min 0,0 UV-I 0 W/m 2,1 km/h (1 Bft)
21.06.2014 04:10 10,4 C 8,9 C 94 % 1019,2 hPa 0,0 l/m 0 min 0 min 0,0 UV-I 0 W/m 0,0 km/h (0 Bft)
21.06.2014 04:12 10,4 C 8,9 C 94 % 1019,2 hPa 0,0 l/m 0 min 0 min 0,0 UV-I 0 W/m 0,0 km/h (0 Bft)
21.06.2014 04:14 10,4 C 8,9 C 94 % 1019,2 hPa 0,0 l/m 0 min 0 min 0,0 UV-I 0 W/m 2,1 km/h (1 Bft)
21.06.2014 04:16 10,4 C 8,9 C 94 % 1019,2 hPa 0,0 l/m 0 min 0 min 0,0 UV-I 0 W/m 0,0 km/h (0 Bft)
21.06.2014 04:18 10,4 C 8,9 C 94 % 1019,3 hPa 0,0 l/m 0 min 0 min 0,0 UV-I 0 W/m 0,0 km/h (0 Bft)
21.06.2014 04:20 10,3 C 8,9 C 94 % 1019,3 hPa 0,0 l/m 0 min 0 min 0,0 UV-I 0 W/m 0,0 km/h (0 Bft)
21.06.2014 04:22 10,3 C 8,9 C 94 % 1019,3 hPa 0,0 l/m 0 min 0 min 0,0 UV-I 0 W/m 0,0 km/h (0 Bft)
21.06.2014 04:24 10,3 C 8,9 C 94 % 1019,3 hPa 0,0 l/m 0 min 0 min 0,0 UV-I 0 W/m 2,1 km/h (1 Bft)
21.06.2014 04:26 10,2 C 8,9 C 94 % 1019,2 hPa 0,0 l/m 0 min 0 min 0,0 UV-I 0 W/m 0,0 km/h (0 Bft)
21.06.2014 04:28 10,2 C 8,9 C 94 % 1019,3 hPa 0,0 l/m 0 min 0 min 0,0 UV-I 0 W/m 0,0 km/h (0 Bft)
21.06.2014 04:30 10,2 C 8,9 C 94 % 1019,3 hPa 0,0 l/m 0 min 0 min 0,0 UV-I 0 W/m 4,2 km/h (1 Bft)
21.06.2014 04:32 10,2 C 8,9 C 94 % 1019,3 hPa 0,0 l/m 0 min 0 min 0,0 UV-I 0 W/m 0,0 km/h (0 Bft)
21.06.2014 04:34 10,1 C 8,9 C 94 % 1019,3 hPa 0,0 l/m 0 min 0 min 0,0 UV-I 0 W/m 0,0 km/h (0 Bft)
21.06.2014 04:36 10,1 C 8,9 C 94 % 1019,3 hPa 0,0 l/m 0 min 0 min 0,0 UV-I 0 W/m 0,0 km/h (0 Bft)
21.06.2014 04:38 10,1 C 8,9 C 94 % 1019,3 hPa 0,0 l/m 0 min 0 min 0,0 UV-I 0 W/m 0,0 km/h (0 Bft)
21.06.2014 04:40 10,0 C 8,9 C 94 % 1019,3 hPa 0,0 l/m 0 min 0 min 0,0 UV-I 0 W/m 6,3 km/h (2 Bft)
21.06.2014 04:42 9,9 C 8,3 C 94 % 1019,4 hPa 0,0 l/m 0 min 0 min 0,0 UV-I 0 W/m 0,0 km/h (0 Bft)
21.06.2014 04:44 9,9 C 8,3 C 95 % 1019,3 hPa 0,0 l/m 0 min 0 min 0,0 UV-I 0 W/m 2,1 km/h (1 Bft)
21.06.2014 04:46 9,9 C 8,3 C 94 % 1019,3 hPa 0,0 l/m 0 min 0 min 0,0 UV-I 0 W/m 4,2 km/h (1 Bft)
21.06.2014 04:48 9,8 C 8,3 C 94 % 1019,3 hPa 0,0 l/m 0 min 0 min 0,0 UV-I 0 W/m 2,1 km/h (1 Bft)
21.06.2014 04:50 9,8 C 8,3 C 94 % 1019,3 hPa 0,0 l/m 0 min 0 min 0,0 UV-I 0 W/m 0,0 km/h (0 Bft)
21.06.2014 04:52 9,8 C 8,3 C 95 % 1019,3 hPa 0,0 l/m 0 min 0 min 0,0 UV-I 0 W/m 0,0 km/h (0 Bft)
21.06.2014 04:54 9,8 C 8,3 C 95 % 1019,3 hPa 0,0 l/m 0 min 0 min 0,0 UV-I 0 W/m 0,0 km/h (0 Bft)
21.06.2014 04:56 9,8 C 8,3 C 95 % 1019,3 hPa 0,0 l/m 0 min 0 min 0,0 UV-I 0 W/m 0,0 km/h (0 Bft)
21.06.2014 04:58 9,8 C 8,3 C 95 % 1019,3 hPa 0,0 l/m 0 min 0 min 0,0 UV-I 0 W/m 0,0 km/h (0 Bft)
21.06.2014 05:00 9,7 C 8,3 C 95 % 1019,3 hPa 0,0 l/m 0 min 0 min 0,0 UV-I 0 W/m 0,0 km/h (0 Bft)
21.06.2014 05:02 9,7 C 8,3 C 95 % 1019,4 hPa 0,0 l/m 0 min 0 min 0,0 UV-I 0 W/m 0,0 km/h (0 Bft)
21.06.2014 05:04 9,7 C 8,3 C 95 % 1019,4 hPa 0,0 l/m 0 min 0 min 0,0 UV-I 0 W/m 2,1 km/h (1 Bft)
21.06.2014 05:06 9,7 C 8,3 C 95 % 1019,4 hPa 0,0 l/m 0 min 0 min 0,0 UV-I 0 W/m 0,0 km/h (0 Bft)
21.06.2014 05:08 9,7 C 8,3 C 95 % 1019,3 hPa 0,0 l/m 0 min 0 min 0,0 UV-I 0 W/m 0,0 km/h (0 Bft)
21.06.2014 05:10 9,7 C 8,3 C 95 % 1019,4 hPa 0,0 l/m 0 min 0 min 0,0 UV-I 0 W/m 0,0 km/h (0 Bft)
21.06.2014 05:12 9,6 C 8,3 C 95 % 1019,4 hPa 0,0 l/m 0 min 0 min 0,0 UV-I 0 W/m 0,0 km/h (0 Bft)
21.06.2014 05:14 9,6 C 8,3 C 95 % 1019,4 hPa 0,0 l/m 0 min 0 min 0,0 UV-I 0 W/m 2,1 km/h (1 Bft)
21.06.2014 05:16 9,6 C 8,3 C 95 % 1019,4 hPa 0,0 l/m 0 min 0 min 0,0 UV-I 0 W/m 0,0 km/h (0 Bft)
21.06.2014 05:18 9,6 C 8,3 C 95 % 1019,4 hPa 0,0 l/m 0 min 0 min 0,0 UV-I 6 W/m 2,1 km/h (1 Bft)
21.06.2014 05:20 9,6 C 8,3 C 95 % 1019,4 hPa 0,0 l/m 0 min 0 min 0,0 UV-I 6 W/m 0,0 km/h (0 Bft)
21.06.2014 05:22 9,6 C 8,3 C 95 % 1019,4 hPa 0,0 l/m 0 min 0 min 0,0 UV-I 6 W/m 0,0 km/h (0 Bft)
21.06.2014 05:24 9,6 C 8,3 C 95 % 1019,4 hPa 0,0 l/m 0 min 0 min 0,0 UV-I 8 W/m 0,0 km/h (0 Bft)
21.06.2014 05:26 9,6 C 8,3 C 95 % 1019,3 hPa 0,0 l/m 0 min 0 min 0,0 UV-I 8 W/m 0,0 km/h (0 Bft)
21.06.2014 05:28 9,6 C 8,3 C 96 % 1019,4 hPa 0,0 l/m 0 min 0 min 0,0 UV-I 10 W/m 0,0 km/h (0 Bft)
21.06.2014 05:30 9,6 C 7,8 C 96 % 1019,3 hPa 0,0 l/m 0 min 0 min 0,0 UV-I 10 W/m 0,0 km/h (0 Bft)
21.06.2014 05:32 9,6 C 7,8 C 96 % 1019,4 hPa 0,0 l/m 2 min 0 min 0,0 UV-I 10 W/m 0,0 km/h (0 Bft)
21.06.2014 05:34 9,5 C 8,3 C 96 % 1019,3 hPa 0,0 l/m 2 min 0 min 0,0 UV-I 13 W/m 0,0 km/h (0 Bft)
21.06.2014 05:36 9,5 C 8,3 C 96 % 1019,3 hPa 0,0 l/m 2 min 0 min 0,0 UV-I 13 W/m 0,0 km/h (0 Bft)
21.06.2014 05:38 9,5 C 8,3 C 96 % 1019,3 hPa 0,0 l/m 0 min 0 min 0,0 UV-I 13 W/m 4,2 km/h (1 Bft)
21.06.2014 05:40 9,5 C 8,3 C 96 % 1019,3 hPa 0,0 l/m 0 min 0 min 0,0 UV-I 14 W/m 0,0 km/h (0 Bft)
21.06.2014 05:42 9,5 C 8,3 C 96 % 1019,4 hPa 0,0 l/m 0 min 0 min 0,0 UV-I 14 W/m 0,0 km/h (0 Bft)
21.06.2014 05:44 9,6 C 8,3 C 96 % 1019,4 hPa 0,0 l/m 0 min 0 min 0,0 UV-I 14 W/m 0,0 km/h (0 Bft)
21.06.2014 05:46 9,6 C 8,3 C 96 % 1019,3 hPa 0,0 l/m 0 min 0 min 0,0 UV-I 16 W/m 0,0 km/h (0 Bft)
21.06.2014 05:48 9,6 C 8,3 C 96 % 1019,4 hPa 0,0 l/m 0 min 0 min 0,0 UV-I 16 W/m 0,0 km/h (0 Bft)
21.06.2014 05:50 9,6 C 8,3 C 96 % 1019,4 hPa 0,0 l/m 0 min 0 min 0,0 UV-I 18 W/m 0,0 km/h (0 Bft)
21.06.2014 05:52 9,6 C 8,3 C 96 % 1019,4 hPa 0,0 l/m 0 min 0 min 0,0 UV-I 21 W/m 0,0 km/h (0 Bft)
21.06.2014 05:54 9,6 C 8,3 C 96 % 1019,3 hPa 0,0 l/m 0 min 0 min 0,0 UV-I 22 W/m 0,0 km/h (0 Bft)
21.06.2014 05:56 9,6 C 8,3 C 96 % 1019,3 hPa 0,0 l/m 0 min 0 min 0,0 UV-I 22 W/m 0,0 km/h (0 Bft)
21.06.2014 05:58 9,6 C 8,3 C 96 % 1019,3 hPa 0,0 l/m 0 min 0 min 0,0 UV-I 26 W/m 0,0 km/h (0 Bft)
21.06.2014 06:00 9,6 C 8,3 C 96 % 1019,3 hPa 0,0 l/m 0 min 0 min 0,0 UV-I 29 W/m 0,0 km/h (0 Bft)
21.06.2014 06:02 9,6 C 8,3 C 96 % 1019,3 hPa 0,0 l/m 0 min 0 min 0,0 UV-I 30 W/m 0,0 km/h (0 Bft)
21.06.2014 06:06 9,6 C 8,3 C 96 % 1019,2 hPa 0,0 l/m 0 min 0 min 0,0 UV-I 46 W/m 0,0 km/h (0 Bft)
21.06.2014 06:08 9,6 C 8,3 C 96 % 1019,2 hPa 0,0 l/m 0 min 0 min 0,0 UV-I 48 W/m 0,0 km/h (0 Bft)
21.06.2014 06:10 9,6 C 8,3 C 96 % 1019,2 hPa 0,0 l/m 2 min 0 min 0,0 UV-I 59 W/m 0,0 km/h (0 Bft)
21.06.2014 06:12 9,6 C 8,3 C 96 % 1019,2 hPa 0,0 l/m 2 min 0 min 0,0 UV-I 62 W/m 0,0 km/h (0 Bft)
21.06.2014 06:14 9,6 C 8,3 C 96 % 1019,2 hPa 0,0 l/m 2 min 0 min 0,0 UV-I 64 W/m 0,0 km/h (0 Bft)
21.06.2014 06:16 9,6 C 8,3 C 96 % 1019,2 hPa 0,0 l/m 2 min 0 min 0,0 UV-I 67 W/m 0,0 km/h (0 Bft)
21.06.2014 06:18 9,6 C 8,3 C 96 % 1019,2 hPa 0,0 l/m 0 min 0 min 0,0 UV-I 61 W/m 0,0 km/h (0 Bft)
21.06.2014 06:20 9,6 C 8,3 C 96 % 1019,2 hPa 0,0 l/m 0 min 0 min 0,0 UV-I 62 W/m 0,0 km/h (0 Bft)
21.06.2014 06:22 9,6 C 8,3 C 96 % 1019,2 hPa 0,0 l/m 0 min 0 min 0,0 UV-I 69 W/m 0,0 km/h (0 Bft)
21.06.2014 06:24 9,6 C 8,3 C 96 % 1019,2 hPa 0,0 l/m 0 min 0 min 0,0 UV-I 71 W/m 0,0 km/h (0 Bft)
21.06.2014 06:26 9,6 C 8,3 C 96 % 1019,3 hPa 0,0 l/m 2 min 0 min 0,0 UV-I 77 W/m 0,0 km/h (0 Bft)
21.06.2014 06:28 9,6 C 8,3 C 96 % 1019,2 hPa 0,0 l/m 2 min 0 min 0,0 UV-I 95 W/m 0,0 km/h (0 Bft)
21.06.2014 06:30 9,6 C 8,3 C 96 % 1019,2 hPa 0,0 l/m 2 min 0 min 0,0 UV-I 107 W/m 2,1 km/h (1 Bft)
21.06.2014 06:32 9,6 C 8,3 C 97 % 1019,2 hPa 0,0 l/m 2 min 0 min 0,0 UV-I 113 W/m 4,2 km/h (1 Bft)
21.06.2014 06:34 9,7 C 8,3 C 97 % 1019,3 hPa 0,0 l/m 2 min 0 min 0,0 UV-I 117 W/m 2,1 km/h (1 Bft)
21.06.2014 06:36 9,7 C 8,9 C 97 % 1019,3 hPa 0,0 l/m 2 min 0 min 0,0 UV-I 130 W/m 6,3 km/h (2 Bft)
21.06.2014 06:38 9,7 C 8,9 C 97 % 1019,3 hPa 0,0 l/m 2 min 0 min 0,0 UV-I 139 W/m 0,0 km/h (0 Bft)
21.06.2014 06:40 9,7 C 8,9 C 97 % 1019,4 hPa 0,0 l/m 2 min 0 min 0,0 UV-I 144 W/m 2,1 km/h (1 Bft)
21.06.2014 06:42 9,8 C 8,9 C 97 % 1019,4 hPa 0,0 l/m 2 min 0 min 0,0 UV-I 155 W/m 2,1 km/h (1 Bft)
21.06.2014 06:44 9,8 C 8,9 C 97 % 1019,4 hPa 0,0 l/m 2 min 0 min 0,0 UV-I 160 W/m 2,1 km/h (1 Bft)
21.06.2014 06:46 9,8 C 8,9 C 97 % 1019,4 hPa 0,0 l/m 2 min 0 min 0,0 UV-I 160 W/m 2,1 km/h (1 Bft)
21.06.2014 06:48 9,8 C 8,9 C 97 % 1019,4 hPa 0,0 l/m 2 min 0 min 0,0 UV-I 166 W/m 0,0 km/h (0 Bft)
21.06.2014 06:50 9,9 C 8,9 C 97 % 1019,4 hPa 0,0 l/m 2 min 0 min 0,0 UV-I 171 W/m 0,0 km/h (0 Bft)
21.06.2014 06:52 9,9 C 9,4 C 97 % 1019,4 hPa 0,0 l/m 2 min 0 min 0,0 UV-I 176 W/m 0,0 km/h (0 Bft)
21.06.2014 06:54 9,9 C 9,4 C 97 % 1019,4 hPa 0,0 l/m 2 min 0 min 0,0 UV-I 176 W/m 2,1 km/h (1 Bft)
21.06.2014 06:56 10,0 C 9,4 C 97 % 1019,4 hPa 0,0 l/m 2 min 0 min 0,0 UV-I 178 W/m 0,0 km/h (0 Bft)
21.06.2014 06:58 10,1 C 9,4 C 97 % 1019,5 hPa 0,0 l/m 2 min 0 min 0,0 UV-I 192 W/m 0,0 km/h (0 Bft)
21.06.2014 07:00 10,1 C 9,4 C 97 % 1019,5 hPa 0,0 l/m 2 min 0 min 0,0 UV-I 208 W/m 0,0 km/h (0 Bft)
21.06.2014 07:02 10,2 C 9,4 C 97 % 1019,4 hPa 0,0 l/m 2 min 0 min 0,0 UV-I 158 W/m 0,0 km/h (0 Bft)
21.06.2014 07:04 10,2 C 9,4 C 97 % 1019,5 hPa 0,0 l/m 2 min 0 min 0,0 UV-I 208 W/m 0,0 km/h (0 Bft)
21.06.2014 07:06 10,3 C 9,4 C 97 % 1019,5 hPa 0,0 l/m 2 min 0 min 0,0 UV-I 216 W/m 0,0 km/h (0 Bft)
21.06.2014 07:08 10,4 C 9,4 C 97 % 1019,5 hPa 0,0 l/m 2 min 0 min 0,0 UV-I 227 W/m 2,1 km/h (1 Bft)
21.06.2014 07:10 10,4 C 9,4 C 97 % 1019,5 hPa 0,0 l/m 2 min 0 min 0,0 UV-I 232 W/m 0,0 km/h (0 Bft)
21.06.2014 07:12 10,5 C 9,4 C 97 % 1019,5 hPa 0,0 l/m 2 min 0 min 0,0 UV-I 224 W/m 0,0 km/h (0 Bft)
21.06.2014 07:14 10,6 C 10,0 C 97 % 1019,5 hPa 0,0 l/m 2 min 0 min 0,0 UV-I 230 W/m 6,3 km/h (2 Bft)
21.06.2014 07:16 10,7 C 10,0 C 97 % 1019,6 hPa 0,0 l/m 2 min 0 min 0,0 UV-I 243 W/m 0,0 km/h (0 Bft)
21.06.2014 07:18 10,7 C 10,0 C 97 % 1019,5 hPa 0,0 l/m 2 min 0 min 0,0 UV-I 251 W/m 0,0 km/h (0 Bft)
21.06.2014 07:20 10,8 C 10,0 C 97 % 1019,6 hPa 0,0 l/m 2 min 0 min 0,0 UV-I 246 W/m 0,0 km/h (0 Bft)
21.06.2014 07:22 10,8 C 10,0 C 97 % 1019,6 hPa 0,0 l/m 2 min 0 min 0,0 UV-I 261 W/m 0,0 km/h (0 Bft)
21.06.2014 07:24 10,9 C 10,0 C 97 % 1019,6 hPa 0,0 l/m 2 min 0 min 0,0 UV-I 264 W/m 4,2 km/h (1 Bft)
21.06.2014 07:26 10,9 C 10,0 C 96 % 1019,6 hPa 0,0 l/m 2 min 0 min 0,0 UV-I 208 W/m 6,3 km/h (2 Bft)
21.06.2014 07:28 10,9 C 10,0 C 96 % 1019,6 hPa 0,0 l/m 2 min 0 min 0,0 UV-I 279 W/m 8,4 km/h (2 Bft)
21.06.2014 07:30 11,0 C 10,0 C 96 % 1019,6 hPa 0,0 l/m 2 min 0 min 0,0 UV-I 251 W/m 6,3 km/h (2 Bft)
21.06.2014 07:32 11,1 C 10,0 C 96 % 1019,6 hPa 0,0 l/m 2 min 0 min 0,0 UV-I 243 W/m 6,3 km/h (2 Bft)
21.06.2014 07:34 11,1 C 10,0 C 96 % 1019,6 hPa 0,0 l/m 2 min 0 min 0,0 UV-I 190 W/m 6,3 km/h (2 Bft)
21.06.2014 07:36 11,2 C 10,6 C 96 % 1019,5 hPa 0,0 l/m 2 min 0 min 0,0 UV-I 206 W/m 4,2 km/h (1 Bft)
21.06.2014 07:38 11,3 C 10,6 C 96 % 1019,5 hPa 0,0 l/m 2 min 0 min 0,0 UV-I 355 W/m 6,3 km/h (2 Bft)
21.06.2014 07:40 11,4 C 10,6 C 96 % 1019,6 hPa 0,0 l/m 2 min 0 min 0,0 UV-I 371 W/m 4,2 km/h (1 Bft)
21.06.2014 07:42 11,4 C 10,6 C 96 % 1019,6 hPa 0,0 l/m 2 min 0 min 0,0 UV-I 277 W/m 0,0 km/h (0 Bft)
21.06.2014 07:44 11,6 C 11,1 C 96 % 1019,6 hPa 0,0 l/m 2 min 0 min 0,0 UV-I 232 W/m 2,1 km/h (1 Bft)
21.06.2014 07:46 11,7 C 11,1 C 96 % 1019,6 hPa 0,0 l/m 2 min 0 min 0,0 UV-I 253 W/m 0,0 km/h (0 Bft)
21.06.2014 07:48 11,8 C 11,1 C 96 % 1019,6 hPa 0,0 l/m 2 min 0 min 0,0 UV-I 245 W/m 6,3 km/h (2 Bft)
21.06.2014 07:50 12,0 C 11,7 C 96 % 1019,6 hPa 0,0 l/m 2 min 0 min 0,0 UV-I 221 W/m 8,4 km/h (2 Bft)
21.06.2014 07:52 12,1 C 11,7 C 95 % 1019,6 hPa 0,0 l/m 2 min 0 min 0,0 UV-I 198 W/m 4,2 km/h (1 Bft)
21.06.2014 07:54 12,3 C 11,7 C 95 % 1019,6 hPa 0,0 l/m 0 min 0 min 0,0 UV-I 186 W/m 0,0 km/h (0 Bft)
21.06.2014 07:56 12,4 C 12,2 C 95 % 1019,6 hPa 0,0 l/m 0 min 0 min 0,0 UV-I 170 W/m 0,0 km/h (0 Bft)
21.06.2014 07:58 12,4 C 12,2 C 94 % 1019,6 hPa 0,0 l/m 0 min 0 min 0,0 UV-I 158 W/m 0,0 km/h (0 Bft)
21.06.2014 08:00 12,5 C 12,2 C 94 % 1019,6 hPa 0,0 l/m 0 min 0 min 0,0 UV-I 155 W/m 4,2 km/h (1 Bft)
21.06.2014 08:02 12,5 C 12,2 C 94 % 1019,6 hPa 0,0 l/m 0 min 0 min 0,0 UV-I 141 W/m 6,3 km/h (2 Bft)
21.06.2014 08:04 12,5 C 12,2 C 93 % 1019,6 hPa 0,0 l/m 0 min 0 min 0,0 UV-I 150 W/m 2,1 km/h (1 Bft)
21.06.2014 08:06 12,6 C 12,2 C 93 % 1019,7 hPa 0,0 l/m 0 min 0 min 0,0 UV-I 155 W/m 0,0 km/h (0 Bft)
21.06.2014 08:08 12,7 C 12,2 C 93 % 1019,6 hPa 0,0 l/m 0 min 0 min 0,0 UV-I 154 W/m 8,4 km/h (2 Bft)
21.06.2014 08:10 12,8 C 12,2 C 93 % 1019,7 hPa 0,0 l/m 0 min 0 min 0,0 UV-I 178 W/m 6,3 km/h (2 Bft)
21.06.2014 08:12 12,8 C 12,2 C 93 % 1019,6 hPa 0,0 l/m 0 min 0 min 0,0 UV-I 210 W/m 12,6 km/h (3 Bft)
21.06.2014 08:14 12,9 C 12,8 C 92 % 1019,7 hPa 0,0 l/m 2 min 0 min 0,0 UV-I 227 W/m 0,0 km/h (0 Bft)
21.06.2014 08:16 12,9 C 12,8 C 92 % 1019,6 hPa 0,0 l/m 2 min 0 min 0,0 UV-I 235 W/m 10,5 km/h (2 Bft)
21.06.2014 08:18 13,0 C 12,8 C 91 % 1019,7 hPa 0,0 l/m 2 min 0 min 0,0 UV-I 253 W/m 8,4 km/h (2 Bft)
21.06.2014 08:20 13,1 C 12,8 C 91 % 1019,6 hPa 0,0 l/m 2 min 0 min 0,0 UV-I 248 W/m 0,0 km/h (0 Bft)
21.06.2014 08:22 13,1 C 12,8 C 91 % 1019,6 hPa 0,0 l/m 2 min 0 min 0,0 UV-I 297 W/m 8,4 km/h (2 Bft)
21.06.2014 08:24 13,2 C 12,8 C 91 % 1019,7 hPa 0,0 l/m 2 min 0 min 0,0 UV-I 346 W/m 8,4 km/h (2 Bft)
21.06.2014 08:26 13,2 C 12,2 C 90 % 1019,7 hPa 0,0 l/m 2 min 0 min 0,5 UV-I 509 W/m 8,4 km/h (2 Bft)
21.06.2014 08:28 13,2 C 12,2 C 90 % 1019,6 hPa 0,0 l/m 2 min 0 min 0,5 UV-I 491 W/m 0,0 km/h (0 Bft)
21.06.2014 08:30 13,3 C 12,2 C 89 % 1019,6 hPa 0,0 l/m 2 min 0 min 0,5 UV-I 515 W/m 12,6 km/h (3 Bft)
21.06.2014 08:32 13,2 C 12,2 C 89 % 1019,6 hPa 0,0 l/m 2 min 0 min 0,6 UV-I 523 W/m 12,6 km/h (3 Bft)
21.06.2014 08:34 13,3 C 12,2 C 89 % 1019,6 hPa 0,0 l/m 2 min 0 min 0,6 UV-I 538 W/m 10,5 km/h (2 Bft)
21.06.2014 08:36 13,4 C 12,2 C 89 % 1019,6 hPa 0,0 l/m 2 min 0 min 0,6 UV-I 562 W/m 10,5 km/h (2 Bft)
21.06.2014 08:38 13,6 C 12,2 C 89 % 1019,6 hPa 0,0 l/m 2 min 0 min 0,0 UV-I 568 W/m 8,4 km/h (2 Bft)
21.06.2014 08:40 13,6 C 12,2 C 89 % 1019,6 hPa 0,0 l/m 2 min 0 min 0,0 UV-I 568 W/m 10,5 km/h (2 Bft)
21.06.2014 08:42 13,7 C 12,2 C 88 % 1019,6 hPa 0,0 l/m 0 min 0 min 0,0 UV-I 147 W/m 8,4 km/h (2 Bft)
21.06.2014 08:44 13,7 C 12,2 C 88 % 1019,6 hPa 0,0 l/m 2 min 0 min 0,7 UV-I 421 W/m 12,6 km/h (3 Bft)
21.06.2014 08:46 13,7 C 12,8 C 88 % 1019,6 hPa 0,0 l/m 2 min 0 min 0,0 UV-I 613 W/m 10,5 km/h (2 Bft)
21.06.2014 08:48 13,8 C 12,8 C 87 % 1019,6 hPa 0,0 l/m 0 min 0 min 0,7 UV-I 222 W/m 8,4 km/h (2 Bft)
21.06.2014 08:50 13,8 C 12,8 C 87 % 1019,6 hPa 0,0 l/m 0 min 0 min 0,7 UV-I 222 W/m 2,1 km/h (1 Bft)
21.06.2014 08:52 13,9 C 12,8 C 87 % 1019,6 hPa 0,0 l/m 2 min 0 min 0,8 UV-I 616 W/m 6,3 km/h (2 Bft)
21.06.2014 08:54 14,2 C 13,3 C 87 % 1019,6 hPa 0,0 l/m 2 min 0 min 0,5 UV-I 574 W/m 0,0 km/h (0 Bft)
21.06.2014 08:56 14,2 C 13,3 C 87 % 1019,6 hPa 0,0 l/m 2 min 0 min 0,0 UV-I 574 W/m 0,0 km/h (0 Bft)
21.06.2014 08:58 14,4 C 13,9 C 87 % 1019,6 hPa 0,0 l/m 2 min 0 min 0,7 UV-I 291 W/m 10,5 km/h (2 Bft)
21.06.2014 09:00 14,6 C 13,9 C 86 % 1019,6 hPa 0,0 l/m 0 min 0 min 0,0 UV-I 205 W/m 8,4 km/h (2 Bft)
21.06.2014 09:02 14,4 C 13,9 C 85 % 1019,6 hPa 0,0 l/m 0 min 0 min 0,5 UV-I 229 W/m 12,6 km/h (3 Bft)
21.06.2014 09:04 14,4 C 13,9 C 85 % 1019,6 hPa 0,0 l/m 2 min 0 min 0,6 UV-I 574 W/m 12,6 km/h (3 Bft)
21.06.2014 09:06 14,3 C 13,9 C 85 % 1019,6 hPa 0,0 l/m 2 min 0 min 0,5 UV-I 574 W/m 10,5 km/h (2 Bft)
21.06.2014 09:08 14,3 C 13,3 C 85 % 1019,6 hPa 0,0 l/m 2 min 0 min 1,2 UV-I 653 W/m 10,5 km/h (2 Bft)
21.06.2014 09:10 14,3 C 13,3 C 84 % 1019,6 hPa 0,0 l/m 2 min 0 min 1,2 UV-I 667 W/m 10,5 km/h (2 Bft)
21.06.2014 09:12 14,4 C 13,3 C 84 % 1019,6 hPa 0,0 l/m 2 min 0 min 0,7 UV-I 691 W/m 2,1 km/h (1 Bft)
21.06.2014 09:14 14,5 C 13,3 C 84 % 1019,5 hPa 0,0 l/m 2 min 0 min 0,9 UV-I 691 W/m 10,5 km/h (2 Bft)
21.06.2014 09:16 14,5 C 13,3 C 83 % 1019,5 hPa 0,0 l/m 0 min 0 min 0,6 UV-I 235 W/m 10,5 km/h (2 Bft)
21.06.2014 09:18 14,5 C 13,9 C 83 % 1019,6 hPa 0,0 l/m 2 min 0 min 0,6 UV-I 782 W/m 16,7 km/h (3 Bft)
21.06.2014 09:20 14,6 C 13,9 C 83 % 1019,5 hPa 0,0 l/m 0 min 0 min 0,5 UV-I 227 W/m 12,6 km/h (3 Bft)
21.06.2014 09:22 14,6 C 13,9 C 84 % 1019,5 hPa 0,0 l/m 0 min 0 min 0,0 UV-I 192 W/m 12,6 km/h (3 Bft)
21.06.2014 09:24 14,7 C 13,9 C 84 % 1019,5 hPa 0,0 l/m 0 min 0 min 0,5 UV-I 237 W/m 10,5 km/h (2 Bft)
21.06.2014 09:26 14,8 C 13,9 C 83 % 1019,5 hPa 0,0 l/m 0 min 0 min 0,5 UV-I 251 W/m 8,4 km/h (2 Bft)
21.06.2014 09:28 14,8 C 14,4 C 83 % 1019,6 hPa 0,0 l/m 0 min 0 min 0,6 UV-I 296 W/m 14,6 km/h (3 Bft)
21.06.2014 09:30 14,8 C 14,4 C 82 % 1019,6 hPa 0,0 l/m 2 min 0 min 0,6 UV-I 787 W/m 12,6 km/h (3 Bft)
21.06.2014 09:32 14,8 C 14,4 C 81 % 1019,6 hPa 0,0 l/m 0 min 0 min 0,0 UV-I 229 W/m 8,4 km/h (2 Bft)
21.06.2014 09:34 15,1 C 14,4 C 82 % 1019,6 hPa 0,0 l/m 0 min 0 min 0,6 UV-I 301 W/m 12,6 km/h (3 Bft)
21.06.2014 09:36 15,1 C 14,4 C 81 % 1019,6 hPa 0,0 l/m 0 min 0 min 0,5 UV-I 240 W/m 12,6 km/h (3 Bft)
21.06.2014 09:38 15,1 C 14,4 C 81 % 1019,6 hPa 0,0 l/m 0 min 0 min 0,6 UV-I 254 W/m 12,6 km/h (3 Bft)
21.06.2014 09:40 15,1 C 14,4 C 82 % 1019,6 hPa 0,0 l/m 0 min 0 min 0,6 UV-I 261 W/m 10,5 km/h (2 Bft)
21.06.2014 09:42 14,9 C 14,4 C 81 % 1019,5 hPa 0,0 l/m 0 min 0 min 0,7 UV-I 283 W/m 12,6 km/h (3 Bft)
21.06.2014 09:44 14,9 C 14,4 C 82 % 1019,6 hPa 0,0 l/m 0 min 0 min 0,8 UV-I 296 W/m 14,6 km/h (3 Bft)
21.06.2014 09:46 14,9 C 14,4 C 81 % 1019,5 hPa 0,0 l/m 0 min 0 min 0,8 UV-I 214 W/m 10,5 km/h (2 Bft)
21.06.2014 09:48 14,9 C 14,4 C 82 % 1019,5 hPa 0,0 l/m 0 min 0 min 0,6 UV-I 206 W/m 2,1 km/h (1 Bft)
21.06.2014 09:50 14,9 C 14,4 C 81 % 1019,5 hPa 0,0 l/m 0 min 0 min 0,7 UV-I 214 W/m 10,5 km/h (2 Bft)
21.06.2014 09:52 14,8 C 14,4 C 81 % 1019,5 hPa 0,0 l/m 0 min 0 min 0,7 UV-I 224 W/m 12,6 km/h (3 Bft)
21.06.2014 09:54 14,7 C 14,4 C 81 % 1019,5 hPa 0,0 l/m 0 min 0 min 1,0 UV-I 224 W/m 12,6 km/h (3 Bft)
21.06.2014 09:56 14,8 C 14,4 C 81 % 1019,4 hPa 0,0 l/m 2 min 0 min 1,0 UV-I 390 W/m 14,6 km/h (3 Bft)
21.06.2014 09:58 14,8 C 14,4 C 81 % 1019,5 hPa 0,0 l/m 0 min 0 min 0,8 UV-I 192 W/m 12,6 km/h (3 Bft)
21.06.2014 10:00 14,9 C 14,4 C 81 % 1019,5 hPa 0,0 l/m 0 min 0 min 0,8 UV-I 198 W/m 12,6 km/h (3 Bft)
21.06.2014 10:02 14,9 C 14,4 C 81 % 1019,5 hPa 0,0 l/m 0 min 0 min 0,9 UV-I 254 W/m 6,3 km/h (2 Bft)
21.06.2014 10:04 14,9 C 14,4 C 81 % 1019,5 hPa 0,0 l/m 0 min 0 min 1,1 UV-I 279 W/m 10,5 km/h (2 Bft)
21.06.2014 10:06 14,9 C 15,0 C 80 % 1019,5 hPa 0,0 l/m 0 min 0 min 2,4 UV-I 312 W/m 10,5 km/h (2 Bft)
21.06.2014 10:08 15,3 C 16,7 C 82 % 1019,5 hPa 0,0 l/m 2 min 0 min 2,4 UV-I 914 W/m 10,5 km/h (2 Bft)
21.06.2014 10:10 15,7 C 16,7 C 80 % 1019,5 hPa 0,0 l/m 2 min 0 min 1,5 UV-I 950 W/m 10,5 km/h (2 Bft)
21.06.2014 10:12 16,1 C 16,7 C 79 % 1019,5 hPa 0,0 l/m 2 min 0 min 1,4 UV-I 440 W/m 10,5 km/h (2 Bft)
21.06.2014 10:14 16,0 C 16,7 C 76 % 1019,5 hPa 0,0 l/m 2 min 0 min 1,2 UV-I 368 W/m 10,5 km/h (2 Bft)
21.06.2014 10:16 16,0 C 16,1 C 77 % 1019,4 hPa 0,0 l/m 2 min 0 min 1,5 UV-I 422 W/m 10,5 km/h (2 Bft)
21.06.2014 10:18 15,8 C 16,1 C 74 % 1019,5 hPa 0,0 l/m 2 min 0 min 1,9 UV-I 422 W/m 12,6 km/h (3 Bft)
21.06.2014 10:20 16,0 C 16,7 C 76 % 1019,5 hPa 0,0 l/m 2 min 0 min 2,1 UV-I 710 W/m 12,6 km/h (3 Bft)
21.06.2014 10:22 16,1 C 17,8 C 75 % 1019,5 hPa 0,0 l/m 2 min 0 min 2,9 UV-I 710 W/m 12,6 km/h (3 Bft)
21.06.2014 10:24 16,5 C 18,3 C 75 % 1019,5 hPa 0,0 l/m 2 min 0 min 1,8 UV-I 710 W/m 0,0 km/h (0 Bft)
21.06.2014 10:26 16,4 C 18,3 C 74 % 1019,5 hPa 0,0 l/m 2 min 0 min 1,7 UV-I 606 W/m 8,4 km/h (2 Bft)
21.06.2014 10:28 16,5 C 17,8 C 76 % 1019,4 hPa 0,0 l/m 2 min 0 min 1,6 UV-I 606 W/m 10,5 km/h (2 Bft)
21.06.2014 10:30 16,6 C 17,2 C 75 % 1019,5 hPa 0,0 l/m 2 min 0 min 1,3 UV-I 435 W/m 10,5 km/h (2 Bft)
21.06.2014 10:32 16,5 C 16,7 C 74 % 1019,5 hPa 0,0 l/m 0 min 0 min 0,9 UV-I 346 W/m 14,6 km/h (3 Bft)
21.06.2014 10:34 16,4 C 16,7 C 75 % 1019,5 hPa 0,0 l/m 0 min 0 min 0,8 UV-I 309 W/m 10,5 km/h (2 Bft)
21.06.2014 10:36 16,3 C 16,7 C 77 % 1019,5 hPa 0,0 l/m 0 min 0 min 0,7 UV-I 275 W/m 6,3 km/h (2 Bft)
21.06.2014 10:38 16,2 C 16,7 C 76 % 1019,5 hPa 0,0 l/m 0 min 0 min 0,7 UV-I 251 W/m 2,1 km/h (1 Bft)
21.06.2014 10:40 16,1 C 16,1 C 75 % 1019,5 hPa 0,0 l/m 0 min 0 min 0,8 UV-I 251 W/m 10,5 km/h (2 Bft)
21.06.2014 10:42 16,0 C 16,1 C 76 % 1019,5 hPa 0,0 l/m 0 min 0 min 0,9 UV-I 245 W/m 8,4 km/h (2 Bft)
21.06.2014 10:44 16,0 C 16,1 C 77 % 1019,5 hPa 0,0 l/m 0 min 0 min 1,2 UV-I 267 W/m 8,4 km/h (2 Bft)
21.06.2014 10:46 15,9 C 15,6 C 76 % 1019,5 hPa 0,0 l/m 0 min 0 min 1,4 UV-I 301 W/m 8,4 km/h (2 Bft)
21.06.2014 10:48 15,8 C 15,6 C 77 % 1019,5 hPa 0,0 l/m 0 min 0 min 1,8 UV-I 350 W/m 10,5 km/h (2 Bft)
21.06.2014 10:50 15,9 C 16,1 C 77 % 1019,5 hPa 0,0 l/m 2 min 0 min 2,6 UV-I 586 W/m 8,4 km/h (2 Bft)
21.06.2014 10:52 16,1 C 16,7 C 78 % 1019,4 hPa 0,0 l/m 2 min 0 min 3,4 UV-I 586 W/m 8,4 km/h (2 Bft)
21.06.2014 10:54 16,3 C 17,8 C 75 % 1019,5 hPa 0,0 l/m 2 min 0 min 3,3 UV-I 586 W/m 14,6 km/h (3 Bft)
21.06.2014 10:56 16,5 C 18,9 C 77 % 1019,5 hPa 0,0 l/m 2 min 0 min 3,3 UV-I 1035 W/m 10,5 km/h (2 Bft)
21.06.2014 10:58 16,7 C 20,0 C 75 % 1019,5 hPa 0,0 l/m 2 min 0 min 3,0 UV-I 1035 W/m 6,3 km/h (2 Bft)
21.06.2014 11:00 16,9 C 20,6 C 74 % 1019,5 hPa 0,0 l/m 2 min 0 min 2,8 UV-I 934 W/m 6,3 km/h (2 Bft)
21.06.2014 11:02 17,1 C 20,6 C 71 % 1019,5 hPa 0,0 l/m 2 min 0 min 2,8 UV-I 518 W/m 6,3 km/h (2 Bft)
21.06.2014 11:04 16,9 C 21,1 C 68 % 1019,5 hPa 0,0 l/m 2 min 0 min 3,7 UV-I 1021 W/m 8,4 km/h (2 Bft)
21.06.2014 11:06 17,2 C 21,7 C 72 % 1019,5 hPa 0,0 l/m 2 min 0 min 3,5 UV-I 1021 W/m 10,5 km/h (2 Bft)
21.06.2014 11:08 17,3 C 22,8 C 70 % 1019,5 hPa 0,0 l/m 2 min 0 min 3,8 UV-I 1025 W/m 6,3 km/h (2 Bft)
21.06.2014 11:10 17,6 C 23,3 C 71 % 1019,5 hPa 0,0 l/m 2 min 0 min 4,0 UV-I 1056 W/m 2,1 km/h (1 Bft)
21.06.2014 11:12 17,9 C 24,4 C 70 % 1019,5 hPa 0,0 l/m 2 min 0 min 4,0 UV-I 1110 W/m 6,3 km/h (2 Bft)
21.06.2014 11:14 18,3 C 25,0 C 71 % 1019,5 hPa 0,0 l/m 2 min 0 min 3,7 UV-I 1122 W/m 16,7 km/h (3 Bft)
21.06.2014 11:16 18,3 C 23,3 C 69 % 1019,4 hPa 0,0 l/m 0 min 0 min 1,9 UV-I 400 W/m 10,5 km/h (2 Bft)
21.06.2014 11:18 18,3 C 21,7 C 71 % 1019,5 hPa 0,0 l/m 0 min 0 min 1,6 UV-I 376 W/m 20,9 km/h (4 Bft)
21.06.2014 11:20 17,8 C 19,4 C 68 % 1019,5 hPa 0,0 l/m 0 min 0 min 1,1 UV-I 291 W/m 18,8 km/h (3 Bft)
21.06.2014 11:22 17,6 C 18,9 C 69 % 1019,5 hPa 0,0 l/m 0 min 0 min 0,9 UV-I 283 W/m 14,6 km/h (3 Bft)
21.06.2014 11:24 17,2 C 17,8 C 70 % 1019,5 hPa 0,0 l/m 0 min 0 min 0,7 UV-I 245 W/m 14,6 km/h (3 Bft)
21.06.2014 11:26 17,0 C 17,2 C 71 % 1019,5 hPa 0,0 l/m 0 min 0 min 0,6 UV-I 224 W/m 6,3 km/h (2 Bft)
21.06.2014 11:28 17,0 C 17,2 C 72 % 1019,5 hPa 0,0 l/m 0 min 0 min 0,8 UV-I 230 W/m 0,0 km/h (0 Bft)
21.06.2014 11:30 17,0 C 17,2 C 72 % 1019,5 hPa 0,0 l/m 0 min 0 min 1,2 UV-I 267 W/m 0,0 km/h (0 Bft)
21.06.2014 11:32 16,8 C 16,7 C 71 % 1019,5 hPa 0,0 l/m 0 min 0 min 1,6 UV-I 305 W/m 10,5 km/h (2 Bft)
21.06.2014 11:34 16,8 C 17,2 C 73 % 1019,4 hPa 0,0 l/m 0 min 0 min 2,3 UV-I 370 W/m 10,5 km/h (2 Bft)
21.06.2014 11:36 16,9 C 17,2 C 73 % 1019,4 hPa 0,0 l/m 0 min 0 min 2,7 UV-I 374 W/m 10,5 km/h (2 Bft)
21.06.2014 11:38 17,1 C 17,8 C 73 % 1019,4 hPa 0,0 l/m 0 min 0 min 2,6 UV-I 394 W/m 6,3 km/h (2 Bft)
21.06.2014 11:40 17,0 C 17,8 C 70 % 1019,4 hPa 0,0 l/m 2 min 0 min 2,8 UV-I 475 W/m 4,2 km/h (1 Bft)
21.06.2014 11:42 17,1 C 18,3 C 73 % 1019,4 hPa 0,0 l/m 0 min 0 min 2,6 UV-I 435 W/m 8,4 km/h (2 Bft)
21.06.2014 11:44 17,0 C 18,3 C 72 % 1019,3 hPa 0,0 l/m 0 min 0 min 2,3 UV-I 382 W/m 10,5 km/h (2 Bft)
21.06.2014 11:46 16,9 C 18,3 C 68 % 1019,3 hPa 0,0 l/m 0 min 0 min 4,1 UV-I 334 W/m 4,2 km/h (1 Bft)
21.06.2014 11:48 16,9 C 20,0 C 70 % 1019,3 hPa 0,0 l/m 2 min 0 min 3,2 UV-I 968 W/m 4,2 km/h (1 Bft)
21.06.2014 11:50 17,2 C 21,1 C 70 % 1019,3 hPa 0,0 l/m 2 min 0 min 4,3 UV-I 974 W/m 6,3 km/h (2 Bft)
21.06.2014 11:52 17,8 C 22,2 C 72 % 1019,2 hPa 0,0 l/m 2 min 0 min 4,3 UV-I 896 W/m 8,4 km/h (2 Bft)
21.06.2014 11:54 18,1 C 23,3 C 70 % 1019,3 hPa 0,0 l/m 2 min 0 min 4,5 UV-I 1000 W/m 6,3 km/h (2 Bft)
21.06.2014 11:56 18,2 C 24,4 C 69 % 1019,3 hPa 0,0 l/m 2 min 0 min 4,4 UV-I 1011 W/m 0,0 km/h (0 Bft)
21.06.2014 11:58 18,2 C 24,4 C 70 % 1019,2 hPa 0,0 l/m 2 min 0 min 4,4 UV-I 990 W/m 6,3 km/h (2 Bft)
21.06.2014 12:00 18,3 C 25,0 C 68 % 1019,2 hPa 0,0 l/m 2 min 0 min 4,4 UV-I 997 W/m 8,4 km/h (2 Bft)
21.06.2014 12:02 18,6 C 25,6 C 72 % 1019,2 hPa 0,0 l/m 2 min 0 min 4,5 UV-I 1013 W/m 8,4 km/h (2 Bft)
21.06.2014 12:06 19,0 C 26,7 C 65 % 1019,2 hPa 0,0 l/m 2 min 0 min 4,5 UV-I 1051 W/m 10,5 km/h (2 Bft)
21.06.2014 12:08 18,9 C 25,0 C 68 % 1019,2 hPa 0,0 l/m 2 min 0 min 4,1 UV-I 1051 W/m 10,5 km/h (2 Bft)
21.06.2014 12:10 19,1 C 24,4 C 65 % 1019,2 hPa 0,0 l/m 2 min 0 min 2,6 UV-I 772 W/m 14,6 km/h (3 Bft)
21.06.2014 12:12 18,8 C 22,8 C 65 % 1019,1 hPa 0,0 l/m 2 min 0 min 2,7 UV-I 772 W/m 12,6 km/h (3 Bft)
21.06.2014 12:14 18,6 C 21,1 C 66 % 1019,1 hPa 0,0 l/m 0 min 0 min 2,2 UV-I 293 W/m 14,6 km/h (3 Bft)
21.06.2014 12:16 18,1 C 20,0 C 65 % 1019,1 hPa 0,0 l/m 0 min 0 min 2,2 UV-I 275 W/m 12,6 km/h (3 Bft)
21.06.2014 12:18 17,8 C 19,4 C 68 % 1019,1 hPa 0,0 l/m 0 min 0 min 2,2 UV-I 246 W/m 10,5 km/h (2 Bft)
21.06.2014 12:20 17,8 C 21,1 C 68 % 1019,1 hPa 0,0 l/m 2 min 0 min 4,8 UV-I 1078 W/m 6,3 km/h (2 Bft)
21.06.2014 12:22 18,3 C 22,2 C 70 % 1019,1 hPa 0,0 l/m 2 min 0 min 2,9 UV-I 1061 W/m 6,3 km/h (2 Bft)
21.06.2014 12:24 18,6 C 22,8 C 67 % 1019,1 hPa 0,0 l/m 0 min 0 min 3,0 UV-I 368 W/m 2,1 km/h (1 Bft)
21.06.2014 12:26 18,7 C 22,8 C 65 % 1019,1 hPa 0,0 l/m 0 min 0 min 3,0 UV-I 354 W/m 6,3 km/h (2 Bft)
21.06.2014 12:28 19,0 C 23,3 C 62 % 1019,1 hPa 0,0 l/m 2 min 0 min 3,6 UV-I 1045 W/m 10,5 km/h (2 Bft)
21.06.2014 12:30 18,9 C 23,9 C 64 % 1019,1 hPa 0,0 l/m 2 min 0 min 4,5 UV-I 1147 W/m 14,6 km/h (3 Bft)
21.06.2014 12:32 18,9 C 23,9 C 62 % 1019,1 hPa 0,0 l/m 2 min 0 min 5,1 UV-I 1173 W/m 10,5 km/h (2 Bft)
21.06.2014 12:34 18,9 C 24,4 C 62 % 1019,0 hPa 0,0 l/m 2 min 0 min 5,1 UV-I 1128 W/m 10,5 km/h (2 Bft)
21.06.2014 12:36 19,1 C 25,0 C 62 % 1019,0 hPa 0,0 l/m 2 min 0 min 5,0 UV-I 1110 W/m 8,4 km/h (2 Bft)
21.06.2014 12:38 19,3 C 23,9 C 63 % 1018,9 hPa 0,0 l/m 2 min 0 min 5,0 UV-I 1011 W/m 6,3 km/h (2 Bft)
21.06.2014 12:40 19,1 C 23,3 C 61 % 1018,9 hPa 0,0 l/m 2 min 0 min 4,9 UV-I 1011 W/m 8,4 km/h (2 Bft)
21.06.2014 12:42 19,0 C 23,9 C 61 % 1019,0 hPa 0,0 l/m 2 min 0 min 3,5 UV-I 1104 W/m 6,3 km/h (2 Bft)
21.06.2014 12:44 19,1 C 22,8 C 62 % 1019,0 hPa 0,0 l/m 0 min 0 min 2,4 UV-I 245 W/m 8,4 km/h (2 Bft)
21.06.2014 12:46 18,9 C 21,7 C 61 % 1019,0 hPa 0,0 l/m 0 min 0 min 4,3 UV-I 240 W/m 14,6 km/h (3 Bft)
21.06.2014 12:48 19,1 C 22,8 C 63 % 1019,0 hPa 0,0 l/m 2 min 0 min 4,9 UV-I 1051 W/m 10,5 km/h (2 Bft)
21.06.2014 12:50 19,4 C 23,3 C 63 % 1019,0 hPa 0,0 l/m 2 min 0 min 5,1 UV-I 1078 W/m 6,3 km/h (2 Bft)
21.06.2014 12:52 19,9 C 23,9 C 64 % 1019,0 hPa 0,0 l/m 2 min 0 min 5,2 UV-I 1118 W/m 14,6 km/h (3 Bft)
21.06.2014 12:54 20,1 C 23,9 C 59 % 1019,0 hPa 0,0 l/m 2 min 0 min 4,2 UV-I 1201 W/m 12,6 km/h (3 Bft)
21.06.2014 12:56 20,0 C 23,9 C 62 % 1019,0 hPa 0,0 l/m 2 min 0 min 2,8 UV-I 1222 W/m 10,5 km/h (2 Bft)
21.06.2014 12:58 19,7 C 23,3 C 59 % 1019,0 hPa 0,0 l/m 2 min 0 min 3,4 UV-I 1043 W/m 8,4 km/h (2 Bft)
21.06.2014 13:00 19,2 C 22,2 C 58 % 1019,0 hPa 0,0 l/m 2 min 0 min 5,0 UV-I 982 W/m 2,1 km/h (1 Bft)
21.06.2014 13:02 19,2 C 22,8 C 62 % 1018,9 hPa 0,0 l/m 2 min 0 min 4,7 UV-I 1104 W/m 14,6 km/h (3 Bft)
21.06.2014 13:04 19,4 C 22,8 C 60 % 1018,9 hPa 0,0 l/m 2 min 0 min 4,8 UV-I 1104 W/m 14,6 km/h (3 Bft)
21.06.2014 13:06 19,9 C 23,3 C 63 % 1018,9 hPa 0,0 l/m 2 min 0 min 4,9 UV-I 1273 W/m 6,3 km/h (2 Bft)
21.06.2014 13:08 20,5 C 23,9 C 64 % 1018,9 hPa 0,0 l/m 2 min 0 min 2,8 UV-I 1273 W/m 14,6 km/h (3 Bft)
21.06.2014 13:10 20,6 C 22,8 C 60 % 1018,9 hPa 0,0 l/m 2 min 0 min 2,7 UV-I 512 W/m 20,9 km/h (4 Bft)
21.06.2014 13:12 20,3 C 22,2 C 59 % 1018,9 hPa 0,0 l/m 0 min 0 min 2,1 UV-I 416 W/m 16,7 km/h (3 Bft)
21.06.2014 13:14 19,9 C 21,7 C 62 % 1018,9 hPa 0,0 l/m 0 min 0 min 2,0 UV-I 370 W/m 12,6 km/h (3 Bft)
21.06.2014 13:16 19,8 C 21,1 C 63 % 1018,9 hPa 0,0 l/m 0 min 0 min 2,0 UV-I 370 W/m 12,6 km/h (3 Bft)
21.06.2014 13:18 19,6 C 20,6 C 62 % 1018,9 hPa 0,0 l/m 0 min 0 min 2,3 UV-I 389 W/m 16,7 km/h (3 Bft)
21.06.2014 13:20 19,4 C 20,6 C 59 % 1018,9 hPa 0,0 l/m 0 min 0 min 2,6 UV-I 413 W/m 14,6 km/h (3 Bft)
21.06.2014 13:22 19,2 C 20,6 C 63 % 1018,9 hPa 0,0 l/m 0 min 0 min 2,5 UV-I 413 W/m 10,5 km/h (2 Bft)
21.06.2014 13:24 19,1 C 20,6 C 62 % 1018,9 hPa 0,0 l/m 0 min 0 min 2,6 UV-I 330 W/m 8,4 km/h (2 Bft)
21.06.2014 13:26 19,0 C 20,0 C 62 % 1018,9 hPa 0,0 l/m 0 min 0 min 2,9 UV-I 358 W/m 6,3 km/h (2 Bft)
21.06.2014 13:28 19,2 C 20,6 C 64 % 1018,9 hPa 0,0 l/m 2 min 0 min 5,2 UV-I 1195 W/m 14,6 km/h (3 Bft)
21.06.2014 13:30 19,7 C 21,1 C 61 % 1018,8 hPa 0,0 l/m 2 min 0 min 5,2 UV-I 1182 W/m 8,4 km/h (2 Bft)
21.06.2014 13:32 20,0 C 22,2 C 61 % 1018,8 hPa 0,0 l/m 2 min 0 min 5,4 UV-I 1248 W/m 8,4 km/h (2 Bft)
21.06.2014 13:34 20,3 C 22,8 C 59 % 1018,8 hPa 0,0 l/m 2 min 0 min 4,2 UV-I 1257 W/m 8,4 km/h (2 Bft)
21.06.2014 13:36 20,4 C 22,8 C 60 % 1018,8 hPa 0,0 l/m 2 min 0 min 4,3 UV-I 1257 W/m 4,2 km/h (1 Bft)
21.06.2014 13:38 20,4 C 22,2 C 58 % 1018,8 hPa 0,0 l/m 2 min 0 min 3,2 UV-I 1257 W/m 4,2 km/h (1 Bft)
21.06.2014 13:40 20,0 C 22,2 C 61 % 1018,8 hPa 0,0 l/m 2 min 0 min 3,1 UV-I 638 W/m 12,6 km/h (3 Bft)
21.06.2014 13:42 20,1 C 21,7 C 60 % 1018,7 hPa 0,0 l/m 2 min 0 min 4,8 UV-I 1195 W/m 14,6 km/h (3 Bft)
21.06.2014 13:44 19,7 C 21,1 C 61 % 1018,8 hPa 0,0 l/m 0 min 0 min 2,2 UV-I 394 W/m 14,6 km/h (3 Bft)
21.06.2014 13:46 19,5 C 21,1 C 61 % 1018,8 hPa 0,0 l/m 0 min 0 min 2,0 UV-I 344 W/m 10,5 km/h (2 Bft)
21.06.2014 13:48 19,5 C 20,6 C 63 % 1018,7 hPa 0,0 l/m 0 min 0 min 2,2 UV-I 350 W/m 16,7 km/h (3 Bft)
21.06.2014 13:50 19,5 C 20,6 C 63 % 1018,7 hPa 0,0 l/m 0 min 0 min 2,4 UV-I 405 W/m 12,6 km/h (3 Bft)
21.06.2014 13:52 19,4 C 20,6 C 63 % 1018,7 hPa 0,0 l/m 0 min 0 min 2,6 UV-I 400 W/m 16,7 km/h (3 Bft)
21.06.2014 13:54 19,5 C 20,6 C 62 % 1018,7 hPa 0,0 l/m 0 min 0 min 3,7 UV-I 400 W/m 16,7 km/h (3 Bft)
21.06.2014 13:56 19,7 C 21,1 C 64 % 1018,7 hPa 0,0 l/m 0 min 0 min 4,5 UV-I 400 W/m 10,5 km/h (2 Bft)
21.06.2014 13:58 19,9 C 21,7 C 63 % 1018,6 hPa 0,0 l/m 2 min 0 min 5,1 UV-I 1142 W/m 8,4 km/h (2 Bft)
21.06.2014 14:00 20,1 C 22,2 C 60 % 1018,6 hPa 0,0 l/m 2 min 0 min 5,1 UV-I 1138 W/m 6,3 km/h (2 Bft)
21.06.2014 14:02 20,6 C 22,2 C 61 % 1018,6 hPa 0,0 l/m 2 min 0 min 5,0 UV-I 1094 W/m 6,3 km/h (2 Bft)
21.06.2014 14:04 20,5 C 21,7 C 57 % 1018,6 hPa 0,0 l/m 2 min 0 min 5,1 UV-I 1080 W/m 12,6 km/h (3 Bft)
21.06.2014 14:06 20,7 C 22,8 C 62 % 1018,7 hPa 0,0 l/m 2 min 0 min 5,1 UV-I 1089 W/m 14,6 km/h (3 Bft)
21.06.2014 14:08 21,1 C 23,3 C 61 % 1018,6 hPa 0,0 l/m 2 min 0 min 5,1 UV-I 1102 W/m 10,5 km/h (2 Bft)
21.06.2014 14:10 21,3 C 23,9 C 61 % 1018,6 hPa 0,0 l/m 2 min 0 min 5,0 UV-I 1124 W/m 12,6 km/h (3 Bft)
21.06.2014 14:12 21,1 C 26,1 C 57 % 1018,5 hPa 0,0 l/m 2 min 0 min 4,9 UV-I 1122 W/m 2,1 km/h (1 Bft)
21.06.2014 14:14 21,2 C 27,8 C 59 % 1018,5 hPa 0,0 l/m 2 min 0 min 4,8 UV-I 1078 W/m 12,6 km/h (3 Bft)
21.06.2014 14:16 21,3 C 27,2 C 57 % 1018,5 hPa 0,0 l/m 2 min 0 min 4,8 UV-I 1041 W/m 23,0 km/h (4 Bft)
21.06.2014 14:18 21,5 C 27,8 C 57 % 1018,6 hPa 0,0 l/m 2 min 0 min 4,9 UV-I 1043 W/m 18,8 km/h (3 Bft)
21.06.2014 14:20 21,2 C 27,8 C 56 % 1018,5 hPa 0,0 l/m 2 min 0 min 4,9 UV-I 1059 W/m 14,6 km/h (3 Bft)
21.06.2014 14:22 21,4 C 28,3 C 62 % 1018,6 hPa 0,0 l/m 2 min 0 min 4,9 UV-I 1124 W/m 14,6 km/h (3 Bft)
21.06.2014 14:24 21,3 C 28,9 C 55 % 1018,6 hPa 0,0 l/m 2 min 0 min 4,5 UV-I 1165 W/m 8,4 km/h (2 Bft)
21.06.2014 14:26 21,2 C 26,1 C 58 % 1018,6 hPa 0,0 l/m 2 min 0 min 2,8 UV-I 472 W/m 12,6 km/h (3 Bft)
21.06.2014 14:28 20,9 C 24,4 C 57 % 1018,6 hPa 0,0 l/m 2 min 0 min 3,9 UV-I 603 W/m 18,8 km/h (3 Bft)
21.06.2014 14:30 20,9 C 25,6 C 59 % 1018,6 hPa 0,0 l/m 2 min 0 min 3,2 UV-I 603 W/m 12,6 km/h (3 Bft)
21.06.2014 14:32 20,8 C 24,4 C 57 % 1018,6 hPa 0,0 l/m 2 min 0 min 2,8 UV-I 491 W/m 10,5 km/h (2 Bft)
21.06.2014 14:34 20,4 C 23,3 C 56 % 1018,6 hPa 0,0 l/m 2 min 0 min 4,0 UV-I 584 W/m 12,6 km/h (3 Bft)
21.06.2014 14:36 20,3 C 22,8 C 57 % 1018,6 hPa 0,0 l/m 2 min 0 min 2,6 UV-I 584 W/m 16,7 km/h (3 Bft)
21.06.2014 14:38 20,1 C 22,2 C 56 % 1018,6 hPa 0,0 l/m 2 min 0 min 3,1 UV-I 504 W/m 12,6 km/h (3 Bft)
21.06.2014 14:40 19,7 C 21,7 C 58 % 1018,6 hPa 0,0 l/m 0 min 0 min 2,4 UV-I 422 W/m 6,3 km/h (2 Bft)
21.06.2014 14:42 19,6 C 21,1 C 61 % 1018,6 hPa 0,0 l/m 0 min 0 min 2,1 UV-I 352 W/m 14,6 km/h (3 Bft)
21.06.2014 14:44 19,7 C 21,1 C 62 % 1018,6 hPa 0,0 l/m 0 min 0 min 2,2 UV-I 380 W/m 14,6 km/h (3 Bft)
21.06.2014 14:46 19,9 C 21,1 C 63 % 1018,6 hPa 0,0 l/m 0 min 0 min 2,2 UV-I 446 W/m 12,6 km/h (3 Bft)
21.06.2014 14:48 19,9 C 20,6 C 60 % 1018,6 hPa 0,0 l/m 0 min 0 min 2,0 UV-I 392 W/m 12,6 km/h (3 Bft)
21.06.2014 14:50 19,9 C 21,1 C 60 % 1018,6 hPa 0,0 l/m 0 min 0 min 1,9 UV-I 371 W/m 10,5 km/h (2 Bft)
21.06.2014 14:52 19,8 C 20,6 C 62 % 1018,6 hPa 0,0 l/m 0 min 0 min 1,7 UV-I 350 W/m 12,6 km/h (3 Bft)
21.06.2014 14:54 19,9 C 20,6 C 58 % 1018,6 hPa 0,0 l/m 0 min 0 min 1,7 UV-I 362 W/m 8,4 km/h (2 Bft)
21.06.2014 14:56 19,9 C 20,6 C 61 % 1018,6 hPa 0,0 l/m 0 min 0 min 1,8 UV-I 360 W/m 12,6 km/h (3 Bft)
21.06.2014 14:58 19,8 C 20,6 C 59 % 1018,6 hPa 0,0 l/m 0 min 0 min 1,7 UV-I 358 W/m 10,5 km/h (2 Bft)
21.06.2014 15:00 19,8 C 20,6 C 61 % 1018,6 hPa 0,0 l/m 0 min 0 min 1,7 UV-I 350 W/m 10,5 km/h (2 Bft)
21.06.2014 15:02 19,8 C 20,6 C 60 % 1018,6 hPa 0,0 l/m 0 min 0 min 1,6 UV-I 352 W/m 14,6 km/h (3 Bft)
21.06.2014 15:04 19,9 C 20,6 C 61 % 1018,6 hPa 0,0 l/m 0 min 0 min 1,8 UV-I 384 W/m 12,6 km/h (3 Bft)
21.06.2014 15:06 19,9 C 20,6 C 60 % 1018,6 hPa 0,0 l/m 0 min 0 min 1,9 UV-I 411 W/m 14,6 km/h (3 Bft)
21.06.2014 15:08 20,0 C 20,6 C 62 % 1018,5 hPa 0,0 l/m 0 min 0 min 1,8 UV-I 390 W/m 14,6 km/h (3 Bft)
21.06.2014 15:10 20,1 C 20,6 C 60 % 1018,6 hPa 0,0 l/m 0 min 0 min 1,7 UV-I 374 W/m 14,6 km/h (3 Bft)
21.06.2014 15:12 20,0 C 20,6 C 61 % 1018,6 hPa 0,0 l/m 0 min 0 min 1,7 UV-I 380 W/m 14,6 km/h (3 Bft)
21.06.2014 15:14 20,1 C 20,6 C 60 % 1018,6 hPa 0,0 l/m 0 min 0 min 1,9 UV-I 414 W/m 8,4 km/h (2 Bft)
21.06.2014 15:16 20,1 C 21,1 C 61 % 1018,5 hPa 0,0 l/m 0 min 0 min 2,0 UV-I 435 W/m 8,4 km/h (2 Bft)
21.06.2014 15:18 20,2 C 21,1 C 62 % 1018,5 hPa 0,0 l/m 2 min 0 min 2,1 UV-I 465 W/m 8,4 km/h (2 Bft)
21.06.2014 15:20 20,2 C 21,1 C 57 % 1018,4 hPa 0,0 l/m 2 min 0 min 2,2 UV-I 485 W/m 2,1 km/h (1 Bft)
21.06.2014 15:22 20,1 C 21,1 C 61 % 1018,5 hPa 0,0 l/m 2 min 0 min 2,1 UV-I 473 W/m 14,6 km/h (3 Bft)
21.06.2014 15:24 20,1 C 21,1 C 60 % 1018,5 hPa 0,0 l/m 2 min 0 min 2,1 UV-I 477 W/m 14,6 km/h (3 Bft)
21.06.2014 15:26 20,1 C 21,1 C 59 % 1018,4 hPa 0,0 l/m 2 min 0 min 2,2 UV-I 475 W/m 10,5 km/h (2 Bft)
21.06.2014 15:28 20,1 C 21,1 C 61 % 1018,4 hPa 0,0 l/m 2 min 0 min 2,0 UV-I 453 W/m 8,4 km/h (2 Bft)
21.06.2014 15:30 20,2 C 21,1 C 58 % 1018,5 hPa 0,0 l/m 2 min 0 min 1,9 UV-I 443 W/m 12,6 km/h (3 Bft)
21.06.2014 15:32 20,1 C 21,1 C 60 % 1018,4 hPa 0,0 l/m 2 min 0 min 2,0 UV-I 453 W/m 10,5 km/h (2 Bft)
21.06.2014 15:34 19,9 C 21,1 C 58 % 1018,4 hPa 0,0 l/m 2 min 0 min 1,9 UV-I 455 W/m 12,6 km/h (3 Bft)
21.06.2014 15:36 19,8 C 20,6 C 60 % 1018,4 hPa 0,0 l/m 2 min 0 min 2,0 UV-I 461 W/m 12,6 km/h (3 Bft)
21.06.2014 15:38 19,7 C 20,6 C 58 % 1018,5 hPa 0,0 l/m 2 min 0 min 2,2 UV-I 554 W/m 12,6 km/h (3 Bft)
21.06.2014 15:40 19,5 C 20,6 C 58 % 1018,4 hPa 0,0 l/m 2 min 0 min 2,1 UV-I 501 W/m 12,6 km/h (3 Bft)
21.06.2014 15:42 19,4 C 20,6 C 58 % 1018,4 hPa 0,0 l/m 2 min 0 min 2,1 UV-I 504 W/m 12,6 km/h (3 Bft)
21.06.2014 15:44 19,7 C 21,1 C 61 % 1018,4 hPa 0,0 l/m 2 min 0 min 2,9 UV-I 621 W/m 4,2 km/h (1 Bft)
21.06.2014 15:46 19,9 C 21,7 C 61 % 1018,4 hPa 0,0 l/m 2 min 0 min 2,3 UV-I 568 W/m 2,1 km/h (1 Bft)
21.06.2014 15:48 19,9 C 21,1 C 59 % 1018,4 hPa 0,0 l/m 2 min 0 min 1,9 UV-I 465 W/m 12,6 km/h (3 Bft)
21.06.2014 15:50 20,0 C 21,1 C 59 % 1018,5 hPa 0,0 l/m 0 min 0 min 1,7 UV-I 424 W/m 12,6 km/h (3 Bft)
21.06.2014 15:52 20,1 C 21,1 C 62 % 1018,4 hPa 0,0 l/m 0 min 0 min 1,7 UV-I 419 W/m 10,5 km/h (2 Bft)
21.06.2014 15:54 19,9 C 20,6 C 58 % 1018,4 hPa 0,0 l/m 2 min 0 min 1,8 UV-I 465 W/m 8,4 km/h (2 Bft)
21.06.2014 15:56 19,8 C 21,1 C 59 % 1018,4 hPa 0,0 l/m 2 min 0 min 2,1 UV-I 496 W/m 2,1 km/h (1 Bft)
21.06.2014 15:58 20,0 C 21,1 C 59 % 1018,4 hPa 0,0 l/m 2 min 0 min 2,0 UV-I 496 W/m 2,1 km/h (1 Bft)
21.06.2014 16:00 19,9 C 21,1 C 60 % 1018,4 hPa 0,0 l/m 2 min 0 min 2,1 UV-I 480 W/m 10,5 km/h (2 Bft)
21.06.2014 16:02 20,1 C 21,1 C 60 % 1018,3 hPa 0,0 l/m 2 min 0 min 2,0 UV-I 481 W/m 8,4 km/h (2 Bft)
21.06.2014 16:04 19,8 C 21,1 C 57 % 1018,3 hPa 0,0 l/m 2 min 0 min 2,2 UV-I 538 W/m 2,1 km/h (1 Bft)
21.06.2014 16:06 19,8 C 21,1 C 59 % 1018,2 hPa 0,0 l/m 2 min 0 min 2,1 UV-I 512 W/m 6,3 km/h (2 Bft)
21.06.2014 16:08 19,8 C 21,1 C 59 % 1018,2 hPa 0,0 l/m 2 min 0 min 1,8 UV-I 443 W/m 10,5 km/h (2 Bft)
21.06.2014 16:10 19,8 C 21,1 C 62 % 1018,2 hPa 0,0 l/m 0 min 0 min 1,7 UV-I 398 W/m 12,6 km/h (3 Bft)
21.06.2014 16:12 20,0 C 21,1 C 59 % 1018,2 hPa 0,0 l/m 2 min 0 min 2,4 UV-I 520 W/m 10,5 km/h (2 Bft)
21.06.2014 16:14 20,1 C 21,1 C 59 % 1018,2 hPa 0,0 l/m 2 min 0 min 2,1 UV-I 590 W/m 8,4 km/h (2 Bft)
21.06.2014 16:16 20,3 C 21,1 C 58 % 1018,2 hPa 0,0 l/m 2 min 0 min 2,8 UV-I 513 W/m 8,4 km/h (2 Bft)
21.06.2014 16:18 20,1 C 21,1 C 59 % 1018,2 hPa 0,0 l/m 2 min 0 min 2,2 UV-I 513 W/m 12,6 km/h (3 Bft)
21.06.2014 16:20 20,1 C 21,1 C 59 % 1018,2 hPa 0,0 l/m 2 min 0 min 1,7 UV-I 718 W/m 14,6 km/h (3 Bft)
21.06.2014 16:22 20,2 C 20,6 C 60 % 1018,2 hPa 0,0 l/m 0 min 0 min 1,5 UV-I 289 W/m 12,6 km/h (3 Bft)
21.06.2014 16:24 20,2 C 20,6 C 61 % 1018,2 hPa 0,0 l/m 0 min 0 min 1,6 UV-I 285 W/m 12,6 km/h (3 Bft)
21.06.2014 16:26 20,1 C 20,6 C 59 % 1018,2 hPa 0,0 l/m 0 min 0 min 1,4 UV-I 267 W/m 12,6 km/h (3 Bft)
21.06.2014 16:28 19,8 C 20,0 C 58 % 1018,1 hPa 0,0 l/m 0 min 0 min 1,3 UV-I 267 W/m 10,5 km/h (2 Bft)
21.06.2014 16:30 19,7 C 20,0 C 63 % 1018,1 hPa 0,0 l/m 0 min 0 min 1,3 UV-I 331 W/m 0,0 km/h (0 Bft)
21.06.2014 16:32 19,8 C 20,6 C 61 % 1018,2 hPa 0,0 l/m 2 min 0 min 1,6 UV-I 416 W/m 8,4 km/h (2 Bft)
21.06.2014 16:34 20,0 C 20,6 C 61 % 1018,1 hPa 0,0 l/m 2 min 0 min 1,5 UV-I 408 W/m 8,4 km/h (2 Bft)
21.06.2014 16:36 20,1 C 20,6 C 61 % 1018,2 hPa 0,0 l/m 2 min 0 min 1,4 UV-I 389 W/m 6,3 km/h (2 Bft)
21.06.2014 16:38 20,2 C 20,6 C 59 % 1018,1 hPa 0,0 l/m 0 min 0 min 1,3 UV-I 362 W/m 10,5 km/h (2 Bft)
21.06.2014 16:40 20,1 C 20,6 C 61 % 1018,1 hPa 0,0 l/m 0 min 0 min 1,3 UV-I 346 W/m 10,5 km/h (2 Bft)
21.06.2014 16:42 20,1 C 20,6 C 61 % 1018,1 hPa 0,0 l/m 2 min 0 min 1,3 UV-I 390 W/m 12,6 km/h (3 Bft)
21.06.2014 16:44 20,2 C 20,6 C 62 % 1018,1 hPa 0,0 l/m 2 min 0 min 1,3 UV-I 380 W/m 8,4 km/h (2 Bft)
21.06.2014 16:46 20,3 C 21,1 C 61 % 1018,0 hPa 0,0 l/m 2 min 0 min 1,4 UV-I 402 W/m 6,3 km/h (2 Bft)
21.06.2014 16:48 20,5 C 21,1 C 62 % 1018,0 hPa 0,0 l/m 0 min 0 min 1,3 UV-I 358 W/m 10,5 km/h (2 Bft)
21.06.2014 16:50 20,4 C 20,6 C 60 % 1018,0 hPa 0,0 l/m 0 min 0 min 1,3 UV-I 347 W/m 16,7 km/h (3 Bft)
21.06.2014 16:52 20,4 C 20,6 C 59 % 1018,1 hPa 0,0 l/m 0 min 0 min 1,2 UV-I 338 W/m 12,6 km/h (3 Bft)
21.06.2014 16:54 20,3 C 20,6 C 60 % 1018,0 hPa 0,0 l/m 0 min 0 min 1,1 UV-I 331 W/m 10,5 km/h (2 Bft)
21.06.2014 16:56 20,4 C 20,6 C 61 % 1018,1 hPa 0,0 l/m 0 min 0 min 1,0 UV-I 325 W/m 10,5 km/h (2 Bft)
21.06.2014 16:58 20,4 C 20,6 C 61 % 1018,1 hPa 0,0 l/m 0 min 0 min 1,0 UV-I 328 W/m 12,6 km/h (3 Bft)
21.06.2014 17:00 20,4 C 20,6 C 61 % 1018,1 hPa 0,0 l/m 0 min 0 min 1,0 UV-I 325 W/m 8,4 km/h (2 Bft)
21.06.2014 17:02 20,3 C 21,1 C 59 % 1018,0 hPa 0,0 l/m 0 min 0 min 1,0 UV-I 323 W/m 8,4 km/h (2 Bft)
21.06.2014 17:04 20,2 C 20,6 C 60 % 1018,0 hPa 0,0 l/m 0 min 0 min 0,9 UV-I 315 W/m 10,5 km/h (2 Bft)
21.06.2014 17:06 20,2 C 20,6 C 60 % 1018,0 hPa 0,0 l/m 0 min 0 min 1,0 UV-I 321 W/m 16,7 km/h (3 Bft)
21.06.2014 17:08 20,2 C 20,6 C 60 % 1018,0 hPa 0,0 l/m 0 min 0 min 0,9 UV-I 323 W/m 12,6 km/h (3 Bft)
21.06.2014 17:10 20,1 C 20,6 C 59 % 1018,0 hPa 0,0 l/m 0 min 0 min 0,9 UV-I 325 W/m 16,7 km/h (3 Bft)
21.06.2014 17:12 20,1 C 20,6 C 59 % 1018,0 hPa 0,0 l/m 0 min 0 min 0,8 UV-I 321 W/m 10,5 km/h (2 Bft)
21.06.2014 17:14 20,0 C 20,0 C 59 % 1018,1 hPa 0,0 l/m 0 min 0 min 0,8 UV-I 317 W/m 12,6 km/h (3 Bft)
21.06.2014 17:16 20,0 C 20,0 C 61 % 1018,1 hPa 0,0 l/m 0 min 0 min 0,8 UV-I 309 W/m 10,5 km/h (2 Bft)
21.06.2014 17:18 20,1 C 20,0 C 60 % 1018,0 hPa 0,0 l/m 0 min 0 min 0,7 UV-I 297 W/m 12,6 km/h (3 Bft)
21.06.2014 17:20 20,1 C 20,0 C 61 % 1018,1 hPa 0,0 l/m 0 min 0 min 0,7 UV-I 289 W/m 10,5 km/h (2 Bft)
21.06.2014 17:22 20,1 C 20,0 C 62 % 1018,1 hPa 0,0 l/m 0 min 0 min 0,7 UV-I 279 W/m 10,5 km/h (2 Bft)
21.06.2014 17:24 20,0 C 20,0 C 60 % 1018,0 hPa 0,0 l/m 0 min 0 min 0,6 UV-I 271 W/m 12,6 km/h (3 Bft)
21.06.2014 17:26 20,1 C 20,0 C 63 % 1018,0 hPa 0,0 l/m 0 min 0 min 0,6 UV-I 264 W/m 16,7 km/h (3 Bft)
21.06.2014 17:28 20,1 C 20,0 C 61 % 1018,0 hPa 0,0 l/m 0 min 0 min 0,6 UV-I 253 W/m 14,6 km/h (3 Bft)
21.06.2014 17:30 20,1 C 20,0 C 62 % 1018,1 hPa 0,0 l/m 0 min 0 min 0,5 UV-I 254 W/m 6,3 km/h (2 Bft)
21.06.2014 17:32 20,1 C 20,0 C 61 % 1018,0 hPa 0,0 l/m 0 min 0 min 0,6 UV-I 254 W/m 14,6 km/h (3 Bft)
21.06.2014 17:34 20,1 C 20,0 C 62 % 1018,0 hPa 0,0 l/m 0 min 0 min 0,6 UV-I 256 W/m 12,6 km/h (3 Bft)
21.06.2014 17:36 20,1 C 20,0 C 61 % 1018,0 hPa 0,0 l/m 0 min 0 min 0,5 UV-I 256 W/m 10,5 km/h (2 Bft)
21.06.2014 17:38 20,1 C 20,0 C 61 % 1017,9 hPa 0,0 l/m 0 min 0 min 0,6 UV-I 261 W/m 8,4 km/h (2 Bft)
21.06.2014 17:40 20,2 C 20,6 C 62 % 1017,9 hPa 0,0 l/m 0 min 0 min 0,6 UV-I 273 W/m 8,4 km/h (2 Bft)
21.06.2014 17:42 20,2 C 20,6 C 62 % 1018,0 hPa 0,0 l/m 0 min 0 min 0,6 UV-I 279 W/m 12,6 km/h (3 Bft)
21.06.2014 17:44 20,2 C 20,6 C 63 % 1017,9 hPa 0,0 l/m 0 min 0 min 0,6 UV-I 289 W/m 10,5 km/h (2 Bft)
21.06.2014 17:46 20,3 C 20,6 C 63 % 1017,9 hPa 0,0 l/m 0 min 0 min 0,6 UV-I 304 W/m 6,3 km/h (2 Bft)
21.06.2014 17:48 20,3 C 20,6 C 62 % 1018,0 hPa 0,0 l/m 0 min 0 min 0,6 UV-I 297 W/m 14,6 km/h (3 Bft)
21.06.2014 17:50 20,3 C 20,0 C 63 % 1017,9 hPa 0,0 l/m 0 min 0 min 0,6 UV-I 288 W/m 10,5 km/h (2 Bft)
21.06.2014 17:52 20,2 C 20,0 C 62 % 1018,0 hPa 0,0 l/m 0 min 0 min 0,5 UV-I 277 W/m 14,6 km/h (3 Bft)
21.06.2014 17:54 20,2 C 20,0 C 62 % 1017,9 hPa 0,0 l/m 0 min 0 min 0,5 UV-I 277 W/m 12,6 km/h (3 Bft)
21.06.2014 17:56 20,2 C 20,0 C 60 % 1018,0 hPa 0,0 l/m 0 min 0 min 0,5 UV-I 281 W/m 14,6 km/h (3 Bft)
21.06.2014 17:58 20,1 C 20,0 C 61 % 1017,9 hPa 0,0 l/m 0 min 0 min 0,5 UV-I 293 W/m 16,7 km/h (3 Bft)
21.06.2014 18:00 20,0 C 20,0 C 63 % 1017,9 hPa 0,0 l/m 0 min 0 min 0,5 UV-I 293 W/m 8,4 km/h (2 Bft)
21.06.2014 18:02 20,1 C 20,0 C 63 % 1017,9 hPa 0,0 l/m 0 min 0 min 0,5 UV-I 288 W/m 12,6 km/h (3 Bft)
21.06.2014 18:06 20,1 C 20,0 C 63 % 1018,0 hPa 0,0 l/m 2 min 0 min 0,5 UV-I 315 W/m 18,8 km/h (3 Bft)
21.06.2014 18:08 20,0 C 20,0 C 62 % 1018,0 hPa 0,0 l/m 2 min 0 min 0,5 UV-I 342 W/m 14,6 km/h (3 Bft)
21.06.2014 18:10 20,0 C 19,4 C 62 % 1018,0 hPa 0,0 l/m 2 min 0 min 0,0 UV-I 518 W/m 14,6 km/h (3 Bft)
21.06.2014 18:12 20,0 C 19,4 C 63 % 1018,0 hPa 0,0 l/m 2 min 0 min 0,0 UV-I 414 W/m 16,7 km/h (3 Bft)
21.06.2014 18:14 19,9 C 19,4 C 61 % 1017,9 hPa 0,0 l/m 2 min 0 min 0,0 UV-I 283 W/m 14,6 km/h (3 Bft)
21.06.2014 18:16 19,9 C 19,4 C 63 % 1017,9 hPa 0,0 l/m 2 min 0 min 0,0 UV-I 465 W/m 12,6 km/h (3 Bft)
21.06.2014 18:18 19,9 C 18,9 C 63 % 1018,0 hPa 0,0 l/m 2 min 0 min 0,0 UV-I 400 W/m 12,6 km/h (3 Bft)
21.06.2014 18:20 19,9 C 18,9 C 63 % 1018,0 hPa 0,0 l/m 2 min 0 min 0,0 UV-I 384 W/m 10,5 km/h (2 Bft)
21.06.2014 18:22 19,9 C 18,9 C 64 % 1018,0 hPa 0,0 l/m 2 min 0 min 0,0 UV-I 472 W/m 10,5 km/h (2 Bft)
21.06.2014 18:24 19,9 C 18,9 C 64 % 1017,9 hPa 0,0 l/m 2 min 0 min 0,0 UV-I 475 W/m 12,6 km/h (3 Bft)
21.06.2014 18:26 19,9 C 18,9 C 63 % 1017,9 hPa 0,0 l/m 2 min 0 min 0,0 UV-I 330 W/m 12,6 km/h (3 Bft)
21.06.2014 18:28 19,9 C 18,9 C 64 % 1017,8 hPa 0,0 l/m 2 min 0 min 0,0 UV-I 432 W/m 14,6 km/h (3 Bft)
21.06.2014 18:30 19,9 C 18,9 C 63 % 1017,9 hPa 0,0 l/m 0 min 0 min 0,0 UV-I 174 W/m 14,6 km/h (3 Bft)
21.06.2014 18:32 19,8 C 18,9 C 63 % 1017,9 hPa 0,0 l/m 0 min 0 min 0,0 UV-I 194 W/m 8,4 km/h (2 Bft)
21.06.2014 18:34 19,7 C 18,9 C 63 % 1017,9 hPa 0,0 l/m 0 min 0 min 0,0 UV-I 230 W/m 10,5 km/h (2 Bft)
21.06.2014 18:36 19,6 C 18,9 C 63 % 1017,9 hPa 0,0 l/m 0 min 0 min 0,0 UV-I 214 W/m 10,5 km/h (2 Bft)
21.06.2014 18:38 19,6 C 18,3 C 64 % 1017,8 hPa 0,0 l/m 2 min 0 min 0,0 UV-I 339 W/m 18,8 km/h (3 Bft)
21.06.2014 18:40 19,6 C 18,3 C 63 % 1017,8 hPa 0,0 l/m 2 min 0 min 0,0 UV-I 374 W/m 8,4 km/h (2 Bft)
21.06.2014 18:42 19,7 C 18,3 C 63 % 1017,8 hPa 0,0 l/m 2 min 0 min 0,0 UV-I 405 W/m 12,6 km/h (3 Bft)
21.06.2014 18:44 19,6 C 18,3 C 63 % 1017,9 hPa 0,0 l/m 2 min 0 min 0,0 UV-I 402 W/m 12,6 km/h (3 Bft)
21.06.2014 18:46 19,7 C 18,3 C 63 % 1017,8 hPa 0,0 l/m 2 min 0 min 0,0 UV-I 376 W/m 12,6 km/h (3 Bft)
21.06.2014 18:48 19,7 C 18,3 C 64 % 1017,8 hPa 0,0 l/m 0 min 0 min 0,0 UV-I 176 W/m 12,6 km/h (3 Bft)
21.06.2014 18:50 19,7 C 18,3 C 63 % 1017,8 hPa 0,0 l/m 2 min 0 min 0,0 UV-I 376 W/m 10,5 km/h (2 Bft)
21.06.2014 18:52 19,7 C 18,3 C 63 % 1017,8 hPa 0,0 l/m 2 min 0 min 0,0 UV-I 368 W/m 10,5 km/h (2 Bft)
21.06.2014 18:54 19,8 C 18,3 C 64 % 1017,7 hPa 0,0 l/m 2 min 0 min 0,0 UV-I 352 W/m 12,6 km/h (3 Bft)
21.06.2014 18:56 19,8 C 18,3 C 64 % 1017,7 hPa 0,0 l/m 2 min 0 min 0,0 UV-I 342 W/m 10,5 km/h (2 Bft)
21.06.2014 18:58 19,8 C 18,3 C 64 % 1017,7 hPa 0,0 l/m 2 min 0 min 0,0 UV-I 331 W/m 10,5 km/h (2 Bft)
21.06.2014 19:00 19,9 C 18,3 C 65 % 1017,7 hPa 0,0 l/m 2 min 0 min 0,0 UV-I 323 W/m 10,5 km/h (2 Bft)
21.06.2014 19:02 19,9 C 18,3 C 65 % 1017,7 hPa 0,0 l/m 2 min 0 min 0,0 UV-I 321 W/m 4,2 km/h (1 Bft)
21.06.2014 19:04 19,9 C 18,3 C 64 % 1017,7 hPa 0,0 l/m 2 min 0 min 0,0 UV-I 315 W/m 10,5 km/h (2 Bft)
21.06.2014 19:06 19,8 C 18,3 C 63 % 1017,6 hPa 0,0 l/m 2 min 0 min 0,0 UV-I 309 W/m 12,6 km/h (3 Bft)
21.06.2014 19:08 19,8 C 18,3 C 64 % 1017,6 hPa 0,0 l/m 2 min 0 min 0,0 UV-I 297 W/m 8,4 km/h (2 Bft)
21.06.2014 19:10 19,7 C 18,3 C 64 % 1017,7 hPa 0,0 l/m 2 min 0 min 0,0 UV-I 291 W/m 10,5 km/h (2 Bft)
21.06.2014 19:12 19,7 C 18,3 C 63 % 1017,7 hPa 0,0 l/m 2 min 0 min 0,0 UV-I 288 W/m 8,4 km/h (2 Bft)
21.06.2014 19:14 19,5 C 17,8 C 63 % 1017,7 hPa 0,0 l/m 2 min 0 min 0,0 UV-I 271 W/m 0,0 km/h (0 Bft)
21.06.2014 19:16 19,5 C 17,8 C 65 % 1017,7 hPa 0,0 l/m 2 min 0 min 0,0 UV-I 263 W/m 10,5 km/h (2 Bft)
21.06.2014 19:18 19,6 C 17,8 C 64 % 1017,7 hPa 0,0 l/m 2 min 0 min 0,0 UV-I 259 W/m 12,6 km/h (3 Bft)
21.06.2014 19:20 19,6 C 17,8 C 65 % 1017,7 hPa 0,0 l/m 2 min 0 min 0,0 UV-I 275 W/m 10,5 km/h (2 Bft)
21.06.2014 19:22 19,6 C 17,8 C 64 % 1017,7 hPa 0,0 l/m 2 min 0 min 0,0 UV-I 187 W/m 10,5 km/h (2 Bft)
21.06.2014 19:24 19,6 C 18,3 C 64 % 1017,6 hPa 0,0 l/m 2 min 0 min 0,0 UV-I 246 W/m 10,5 km/h (2 Bft)
21.06.2014 19:26 19,6 C 18,3 C 63 % 1017,6 hPa 0,0 l/m 0 min 0 min 0,0 UV-I 178 W/m 6,3 km/h (2 Bft)
21.06.2014 19:28 19,5 C 18,3 C 64 % 1017,6 hPa 0,0 l/m 2 min 0 min 0,0 UV-I 194 W/m 4,2 km/h (1 Bft)
21.06.2014 19:30 19,5 C 18,3 C 64 % 1017,6 hPa 0,0 l/m 2 min 0 min 0,0 UV-I 232 W/m 8,4 km/h (2 Bft)
21.06.2014 19:32 19,5 C 18,3 C 64 % 1017,6 hPa 0,0 l/m 2 min 0 min 0,0 UV-I 237 W/m 4,2 km/h (1 Bft)
21.06.2014 19:34 19,6 C 17,8 C 65 % 1017,6 hPa 0,0 l/m 2 min 0 min 0,0 UV-I 235 W/m 2,1 km/h (1 Bft)
21.06.2014 19:36 19,6 C 17,8 C 65 % 1017,5 hPa 0,0 l/m 2 min 0 min 0,0 UV-I 240 W/m 6,3 km/h (2 Bft)
21.06.2014 19:38 19,6 C 17,8 C 64 % 1017,6 hPa 0,0 l/m 0 min 0 min 0,0 UV-I 101 W/m 10,5 km/h (2 Bft)
21.06.2014 19:40 19,5 C 17,8 C 64 % 1017,5 hPa 0,0 l/m 2 min 0 min 0,0 UV-I 222 W/m 10,5 km/h (2 Bft)
21.06.2014 19:42 19,4 C 17,8 C 64 % 1017,5 hPa 0,0 l/m 2 min 0 min 0,0 UV-I 218 W/m 10,5 km/h (2 Bft)
21.06.2014 19:44 19,4 C 17,8 C 65 % 1017,5 hPa 0,0 l/m 2 min 0 min 0,0 UV-I 176 W/m 8,4 km/h (2 Bft)
21.06.2014 19:46 19,4 C 17,8 C 65 % 1017,5 hPa 0,0 l/m 2 min 0 min 0,0 UV-I 192 W/m 10,5 km/h (2 Bft)
21.06.2014 19:48 19,4 C 17,8 C 65 % 1017,5 hPa 0,0 l/m 2 min 0 min 0,0 UV-I 187 W/m 8,4 km/h (2 Bft)
21.06.2014 19:50 19,4 C 17,8 C 65 % 1017,5 hPa 0,0 l/m 2 min 0 min 0,0 UV-I 178 W/m 10,5 km/h (2 Bft)
21.06.2014 19:52 19,3 C 17,8 C 65 % 1017,5 hPa 0,0 l/m 2 min 0 min 0,0 UV-I 178 W/m 12,6 km/h (3 Bft)
21.06.2014 19:54 19,3 C 17,8 C 65 % 1017,5 hPa 0,0 l/m 2 min 0 min 0,0 UV-I 174 W/m 14,6 km/h (3 Bft)
21.06.2014 19:56 19,3 C 17,8 C 66 % 1017,5 hPa 0,0 l/m 2 min 0 min 0,0 UV-I 170 W/m 8,4 km/h (2 Bft)
21.06.2014 19:58 19,3 C 17,8 C 66 % 1017,4 hPa 0,0 l/m 0 min 0 min 0,0 UV-I 105 W/m 10,5 km/h (2 Bft)
21.06.2014 20:00 19,3 C 17,2 C 65 % 1017,4 hPa 0,0 l/m 2 min 0 min 0,0 UV-I 150 W/m 6,3 km/h (2 Bft)
21.06.2014 20:02 19,2 C 17,2 C 65 % 1017,5 hPa 0,0 l/m 2 min 0 min 0,0 UV-I 154 W/m 10,5 km/h (2 Bft)
21.06.2014 20:04 19,2 C 17,2 C 65 % 1017,5 hPa 0,0 l/m 2 min 0 min 0,0 UV-I 150 W/m 12,6 km/h (3 Bft)
21.06.2014 20:06 19,2 C 17,2 C 65 % 1017,5 hPa 0,0 l/m 2 min 0 min 0,0 UV-I 141 W/m 8,4 km/h (2 Bft)
21.06.2014 20:08 19,2 C 17,2 C 65 % 1017,5 hPa 0,0 l/m 0 min 0 min 0,0 UV-I 121 W/m 8,4 km/h (2 Bft)
21.06.2014 20:10 19,2 C 17,2 C 65 % 1017,4 hPa 0,0 l/m 0 min 0 min 0,0 UV-I 113 W/m 10,5 km/h (2 Bft)
21.06.2014 20:12 19,2 C 17,2 C 66 % 1017,4 hPa 0,0 l/m 2 min 0 min 0,0 UV-I 121 W/m 10,5 km/h (2 Bft)
21.06.2014 20:14 19,1 C 17,2 C 65 % 1017,5 hPa 0,0 l/m 2 min 0 min 0,0 UV-I 123 W/m 6,3 km/h (2 Bft)
21.06.2014 20:16 19,0 C 17,2 C 66 % 1017,5 hPa 0,0 l/m 2 min 0 min 0,0 UV-I 120 W/m 8,4 km/h (2 Bft)
21.06.2014 20:18 19,1 C 17,2 C 66 % 1017,4 hPa 0,0 l/m 2 min 0 min 0,0 UV-I 112 W/m 4,2 km/h (1 Bft)
21.06.2014 20:20 19,0 C 17,2 C 67 % 1017,5 hPa 0,0 l/m 0 min 0 min 0,0 UV-I 104 W/m 6,3 km/h (2 Bft)
21.06.2014 20:22 18,9 C 17,2 C 67 % 1017,5 hPa 0,0 l/m 0 min 0 min 0,0 UV-I 93 W/m 6,3 km/h (2 Bft)
21.06.2014 20:24 18,9 C 17,2 C 68 % 1017,5 hPa 0,0 l/m 0 min 0 min 0,0 UV-I 67 W/m 6,3 km/h (2 Bft)
21.06.2014 20:26 18,8 C 17,2 C 67 % 1017,4 hPa 0,0 l/m 0 min 0 min 0,0 UV-I 67 W/m 6,3 km/h (2 Bft)
21.06.2014 20:28 18,8 C 16,7 C 67 % 1017,4 hPa 0,0 l/m 0 min 0 min 0,0 UV-I 79 W/m 8,4 km/h (2 Bft)
21.06.2014 20:30 18,7 C 16,7 C 67 % 1017,4 hPa 0,0 l/m 0 min 0 min 0,0 UV-I 80 W/m 2,1 km/h (1 Bft)
21.06.2014 20:32 18,7 C 16,7 C 67 % 1017,4 hPa 0,0 l/m 0 min 0 min 0,0 UV-I 79 W/m 2,1 km/h (1 Bft)
21.06.2014 20:34 18,7 C 16,7 C 68 % 1017,5 hPa 0,0 l/m 0 min 0 min 0,0 UV-I 75 W/m 0,0 km/h (0 Bft)
21.06.2014 20:36 18,7 C 16,7 C 68 % 1017,4 hPa 0,0 l/m 0 min 0 min 0,0 UV-I 71 W/m 0,0 km/h (0 Bft)
21.06.2014 20:38 18,6 C 16,7 C 68 % 1017,4 hPa 0,0 l/m 0 min 0 min 0,0 UV-I 69 W/m 2,1 km/h (1 Bft)
21.06.2014 20:40 18,6 C 16,7 C 69 % 1017,5 hPa 0,0 l/m 0 min 0 min 0,0 UV-I 67 W/m 0,0 km/h (0 Bft)
21.06.2014 20:42 18,5 C 16,7 C 69 % 1017,4 hPa 0,0 l/m 0 min 0 min 0,0 UV-I 61 W/m 0,0 km/h (0 Bft)
21.06.2014 20:44 18,5 C 16,7 C 69 % 1017,4 hPa 0,0 l/m 0 min 0 min 0,0 UV-I 59 W/m 0,0 km/h (0 Bft)
21.06.2014 20:46 18,4 C 16,7 C 69 % 1017,4 hPa 0,0 l/m 0 min 0 min 0,0 UV-I 56 W/m 2,1 km/h (1 Bft)
21.06.2014 20:48 18,4 C 16,7 C 69 % 1017,5 hPa 0,0 l/m 0 min 0 min 0,0 UV-I 53 W/m 0,0 km/h (0 Bft)
21.06.2014 20:50 18,4 C 16,7 C 69 % 1017,5 hPa 0,0 l/m 0 min 0 min 0,0 UV-I 53 W/m 0,0 km/h (0 Bft)
21.06.2014 20:52 18,3 C 16,7 C 69 % 1017,5 hPa 0,0 l/m 0 min 0 min 0,0 UV-I 53 W/m 0,0 km/h (0 Bft)
21.06.2014 20:54 18,3 C 16,7 C 69 % 1017,5 hPa 0,0 l/m 0 min 0 min 0,0 UV-I 51 W/m 2,1 km/h (1 Bft)
21.06.2014 20:56 18,3 C 16,1 C 70 % 1017,5 hPa 0,0 l/m 0 min 0 min 0,0 UV-I 48 W/m 0,0 km/h (0 Bft)
21.06.2014 20:58 18,2 C 16,1 C 71 % 1017,5 hPa 0,0 l/m 0 min 0 min 0,0 UV-I 46 W/m 0,0 km/h (0 Bft)
21.06.2014 21:00 18,2 C 16,1 C 71 % 1017,5 hPa 0,0 l/m 0 min 0 min 0,0 UV-I 45 W/m 0,0 km/h (0 Bft)
21.06.2014 21:02 18,1 C 16,1 C 71 % 1017,5 hPa 0,0 l/m 0 min 0 min 0,0 UV-I 43 W/m 0,0 km/h (0 Bft)
21.06.2014 21:04 18,1 C 16,1 C 71 % 1017,5 hPa 0,0 l/m 0 min 0 min 0,0 UV-I 40 W/m 0,0 km/h (0 Bft)
21.06.2014 21:06 18,0 C 16,1 C 71 % 1017,6 hPa 0,0 l/m 0 min 0 min 0,0 UV-I 37 W/m 0,0 km/h (0 Bft)
21.06.2014 21:08 18,0 C 15,6 C 71 % 1017,5 hPa 0,0 l/m 0 min 0 min 0,0 UV-I 34 W/m 2,1 km/h (1 Bft)
21.06.2014 21:10 17,9 C 15,6 C 71 % 1017,5 hPa 0,0 l/m 0 min 0 min 0,0 UV-I 32 W/m 0,0 km/h (0 Bft)
21.06.2014 21:12 17,9 C 15,6 C 72 % 1017,5 hPa 0,0 l/m 0 min 0 min 0,0 UV-I 30 W/m 0,0 km/h (0 Bft)
21.06.2014 21:14 17,8 C 15,6 C 73 % 1017,5 hPa 0,0 l/m 0 min 0 min 0,0 UV-I 29 W/m 0,0 km/h (0 Bft)
21.06.2014 21:16 17,7 C 15,6 C 72 % 1017,5 hPa 0,0 l/m 0 min 0 min 0,0 UV-I 26 W/m 2,1 km/h (1 Bft)
21.06.2014 21:18 17,7 C 15,6 C 72 % 1017,6 hPa 0,0 l/m 0 min 0 min 0,0 UV-I 24 W/m 0,0 km/h (0 Bft)
21.06.2014 21:20 17,7 C 15,6 C 72 % 1017,6 hPa 0,0 l/m 0 min 0 min 0,0 UV-I 22 W/m 0,0 km/h (0 Bft)
21.06.2014 21:22 17,6 C 15,0 C 73 % 1017,5 hPa 0,0 l/m 0 min 0 min 0,0 UV-I 21 W/m 0,0 km/h (0 Bft)
21.06.2014 21:24 17,5 C 15,0 C 73 % 1017,6 hPa 0,0 l/m 0 min 0 min 0,0 UV-I 21 W/m 0,0 km/h (0 Bft)
21.06.2014 21:26 17,4 C 15,0 C 75 % 1017,6 hPa 0,0 l/m 0 min 0 min 0,0 UV-I 18 W/m 0,0 km/h (0 Bft)
21.06.2014 21:28 17,3 C 15,0 C 75 % 1017,5 hPa 0,0 l/m 0 min 0 min 0,0 UV-I 18 W/m 0,0 km/h (0 Bft)
21.06.2014 21:30 17,3 C 15,0 C 74 % 1017,6 hPa 0,0 l/m 0 min 0 min 0,0 UV-I 18 W/m 0,0 km/h (0 Bft)
21.06.2014 21:32 17,2 C 15,0 C 75 % 1017,5 hPa 0,0 l/m 0 min 0 min 0,0 UV-I 16 W/m 0,0 km/h (0 Bft)
21.06.2014 21:34 17,2 C 15,0 C 75 % 1017,5 hPa 0,0 l/m 2 min 0 min 0,0 UV-I 16 W/m 0,0 km/h (0 Bft)
21.06.2014 21:36 17,1 C 15,0 C 75 % 1017,6 hPa 0,0 l/m 2 min 0 min 0,0 UV-I 13 W/m 0,0 km/h (0 Bft)
21.06.2014 21:38 17,0 C 14,4 C 76 % 1017,6 hPa 0,0 l/m 2 min 0 min 0,0 UV-I 13 W/m 0,0 km/h (0 Bft)
21.06.2014 21:40 16,9 C 14,4 C 76 % 1017,6 hPa 0,0 l/m 0 min 0 min 0,0 UV-I 10 W/m 0,0 km/h (0 Bft)
21.06.2014 21:42 16,9 C 14,4 C 76 % 1017,6 hPa 0,0 l/m 0 min 0 min 0,0 UV-I 10 W/m 0,0 km/h (0 Bft)
21.06.2014 21:44 16,8 C 14,4 C 77 % 1017,6 hPa 0,0 l/m 0 min 0 min 0,0 UV-I 8 W/m 0,0 km/h (0 Bft)
21.06.2014 21:46 16,7 C 14,4 C 77 % 1017,6 hPa 0,0 l/m 0 min 0 min 0,0 UV-I 8 W/m 0,0 km/h (0 Bft)
21.06.2014 21:48 16,6 C 14,4 C 77 % 1017,7 hPa 0,0 l/m 0 min 0 min 0,0 UV-I 8 W/m 0,0 km/h (0 Bft)
21.06.2014 21:50 16,5 C 14,4 C 77 % 1017,7 hPa 0,0 l/m 0 min 0 min 0,0 UV-I 6 W/m 0,0 km/h (0 Bft)
21.06.2014 21:52 16,5 C 13,9 C 78 % 1017,7 hPa 0,0 l/m 0 min 0 min 0,0 UV-I 6 W/m 0,0 km/h (0 Bft)
21.06.2014 21:54 16,4 C 13,9 C 78 % 1017,7 hPa 0,0 l/m 0 min 0 min 0,0 UV-I 6 W/m 0,0 km/h (0 Bft)
21.06.2014 21:56 16,4 C 13,9 C 79 % 1017,7 hPa 0,0 l/m 0 min 0 min 0,0 UV-I 6 W/m 0,0 km/h (0 Bft)
21.06.2014 21:58 16,3 C 13,9 C 79 % 1017,7 hPa 0,0 l/m 0 min 0 min 0,0 UV-I 6 W/m 0,0 km/h (0 Bft)
21.06.2014 22:00 16,3 C 13,9 C 79 % 1017,7 hPa 0,0 l/m 0 min 0 min 0,0 UV-I 6 W/m 2,1 km/h (1 Bft)
21.06.2014 22:02 16,3 C 13,9 C 79 % 1017,6 hPa 0,0 l/m 0 min 0 min 0,0 UV-I 0 W/m 0,0 km/h (0 Bft)
21.06.2014 22:04 16,2 C 13,9 C 79 % 1017,7 hPa 0,0 l/m 0 min 0 min 0,0 UV-I 0 W/m 0,0 km/h (0 Bft)
21.06.2014 22:06 16,2 C 13,9 C 80 % 1017,7 hPa 0,0 l/m 0 min 0 min 0,0 UV-I 0 W/m 0,0 km/h (0 Bft)
21.06.2014 22:08 16,2 C 13,9 C 80 % 1017,6 hPa 0,0 l/m 0 min 0 min 0,0 UV-I 0 W/m 0,0 km/h (0 Bft)
21.06.2014 22:10 16,1 C 13,9 C 80 % 1017,6 hPa 0,0 l/m 0 min 0 min 0,0 UV-I 0 W/m 0,0 km/h (0 Bft)
21.06.2014 22:12 16,1 C 13,9 C 80 % 1017,6 hPa 0,0 l/m 0 min 0 min 0,0 UV-I 0 W/m 0,0 km/h (0 Bft)
21.06.2014 22:14 16,0 C 13,9 C 80 % 1017,6 hPa 0,0 l/m 0 min 0 min 0,0 UV-I 0 W/m 0,0 km/h (0 Bft)
21.06.2014 22:16 15,9 C 13,3 C 80 % 1017,6 hPa 0,0 l/m 0 min 0 min 0,0 UV-I 0 W/m 0,0 km/h (0 Bft)
21.06.2014 22:18 15,9 C 13,3 C 80 % 1017,7 hPa 0,0 l/m 0 min 0 min 0,0 UV-I 0 W/m 0,0 km/h (0 Bft)
21.06.2014 22:20 15,8 C 13,3 C 81 % 1017,7 hPa 0,0 l/m 0 min 0 min 0,0 UV-I 0 W/m 0,0 km/h (0 Bft)
21.06.2014 22:22 15,7 C 13,3 C 81 % 1017,6 hPa 0,0 l/m 0 min 0 min 0,0 UV-I 0 W/m 0,0 km/h (0 Bft)
21.06.2014 22:24 15,7 C 13,3 C 82 % 1017,6 hPa 0,0 l/m 0 min 0 min 0,0 UV-I 0 W/m 0,0 km/h (0 Bft)
21.06.2014 22:26 15,6 C 13,3 C 82 % 1017,6 hPa 0,0 l/m 0 min 0 min 0,0 UV-I 0 W/m 2,1 km/h (1 Bft)
21.06.2014 22:28 15,6 C 13,3 C 82 % 1017,7 hPa 0,0 l/m 0 min 0 min 0,0 UV-I 0 W/m 0,0 km/h (0 Bft)
21.06.2014 22:30 15,6 C 13,3 C 82 % 1017,6 hPa 0,0 l/m 0 min 0 min 0,0 UV-I 0 W/m 0,0 km/h (0 Bft)
21.06.2014 22:32 15,5 C 13,3 C 82 % 1017,6 hPa 0,0 l/m 0 min 0 min 0,0 UV-I 0 W/m 0,0 km/h (0 Bft)
21.06.2014 22:34 15,5 C 12,8 C 82 % 1017,6 hPa 0,0 l/m 0 min 0 min 0,0 UV-I 0 W/m 2,1 km/h (1 Bft)
21.06.2014 22:36 15,4 C 12,8 C 82 % 1017,6 hPa 0,0 l/m 0 min 0 min 0,0 UV-I 0 W/m 2,1 km/h (1 Bft)
21.06.2014 22:38 15,4 C 12,8 C 82 % 1017,7 hPa 0,0 l/m 0 min 0 min 0,0 UV-I 0 W/m 0,0 km/h (0 Bft)
21.06.2014 22:40 15,4 C 12,8 C 82 % 1017,7 hPa 0,0 l/m 0 min 0 min 0,0 UV-I 0 W/m 2,1 km/h (1 Bft)
21.06.2014 22:42 15,4 C 12,8 C 81 % 1017,7 hPa 0,0 l/m 0 min 0 min 0,0 UV-I 0 W/m 6,3 km/h (2 Bft)
21.06.2014 22:44 15,4 C 12,8 C 81 % 1017,7 hPa 0,0 l/m 0 min 0 min 0,0 UV-I 0 W/m 4,2 km/h (1 Bft)
21.06.2014 22:46 15,4 C 12,8 C 81 % 1017,7 hPa 0,0 l/m 0 min 0 min 0,0 UV-I 0 W/m 4,2 km/h (1 Bft)
21.06.2014 22:48 15,4 C 12,8 C 81 % 1017,7 hPa 0,0 l/m 0 min 0 min 0,0 UV-I 0 W/m 0,0 km/h (0 Bft)
21.06.2014 22:50 15,5 C 12,8 C 81 % 1017,6 hPa 0,0 l/m 0 min 0 min 0,0 UV-I 0 W/m 2,1 km/h (1 Bft)
21.06.2014 22:52 15,5 C 12,8 C 81 % 1017,7 hPa 0,0 l/m 0 min 0 min 0,0 UV-I 0 W/m 6,3 km/h (2 Bft)
21.06.2014 22:54 15,5 C 12,8 C 81 % 1017,7 hPa 0,0 l/m 0 min 0 min 0,0 UV-I 0 W/m 6,3 km/h (2 Bft)
21.06.2014 22:56 15,4 C 12,8 C 81 % 1017,7 hPa 0,0 l/m 0 min 0 min 0,0 UV-I 0 W/m 0,0 km/h (0 Bft)
21.06.2014 22:58 15,4 C 12,8 C 81 % 1017,7 hPa 0,0 l/m 0 min 0 min 0,0 UV-I 0 W/m 0,0 km/h (0 Bft)
21.06.2014 23:00 15,4 C 12,8 C 81 % 1017,7 hPa 0,0 l/m 0 min 0 min 0,0 UV-I 0 W/m 4,2 km/h (1 Bft)
21.06.2014 23:02 15,3 C 12,8 C 81 % 1017,7 hPa 0,0 l/m 0 min 0 min 0,0 UV-I 0 W/m 6,3 km/h (2 Bft)
21.06.2014 23:04 15,3 C 12,8 C 81 % 1017,6 hPa 0,0 l/m 0 min 0 min 0,0 UV-I 0 W/m 4,2 km/h (1 Bft)
21.06.2014 23:06 15,4 C 12,8 C 81 % 1017,6 hPa 0,0 l/m 0 min 0 min 0,0 UV-I 0 W/m 2,1 km/h (1 Bft)
21.06.2014 23:08 15,5 C 13,3 C 80 % 1017,6 hPa 0,0 l/m 0 min 0 min 0,0 UV-I 0 W/m 0,0 km/h (0 Bft)
21.06.2014 23:10 15,6 C 13,3 C 80 % 1017,6 hPa 0,0 l/m 0 min 0 min 0,0 UV-I 0 W/m 6,3 km/h (2 Bft)
21.06.2014 23:12 15,7 C 13,3 C 79 % 1017,5 hPa 0,0 l/m 0 min 0 min 0,0 UV-I 0 W/m 0,0 km/h (0 Bft)
21.06.2014 23:14 15,8 C 13,3 C 79 % 1017,5 hPa 0,0 l/m 0 min 0 min 0,0 UV-I 0 W/m 2,1 km/h (1 Bft)
21.06.2014 23:16 15,8 C 13,3 C 78 % 1017,5 hPa 0,0 l/m 0 min 0 min 0,0 UV-I 0 W/m 6,3 km/h (2 Bft)
21.06.2014 23:18 15,9 C 13,3 C 78 % 1017,5 hPa 0,0 l/m 0 min 0 min 0,0 UV-I 0 W/m 8,4 km/h (2 Bft)
21.06.2014 23:20 16,1 C 13,9 C 77 % 1017,4 hPa 0,0 l/m 0 min 0 min 0,0 UV-I 0 W/m 6,3 km/h (2 Bft)
21.06.2014 23:22 16,1 C 13,9 C 77 % 1017,5 hPa 0,0 l/m 0 min 0 min 0,0 UV-I 0 W/m 6,3 km/h (2 Bft)
21.06.2014 23:24 16,2 C 13,9 C 77 % 1017,4 hPa 0,0 l/m 0 min 0 min 0,0 UV-I 0 W/m 0,0 km/h (0 Bft)
21.06.2014 23:26 16,2 C 13,9 C 77 % 1017,5 hPa 0,0 l/m 0 min 0 min 0,0 UV-I 0 W/m 4,2 km/h (1 Bft)
21.06.2014 23:28 16,2 C 13,9 C 77 % 1017,4 hPa 0,0 l/m 0 min 0 min 0,0 UV-I 0 W/m 6,3 km/h (2 Bft)
21.06.2014 23:30 16,2 C 13,9 C 77 % 1017,4 hPa 0,0 l/m 0 min 0 min 0,0 UV-I 0 W/m 6,3 km/h (2 Bft)
21.06.2014 23:32 16,2 C 14,4 C 77 % 1017,4 hPa 0,0 l/m 0 min 0 min 0,0 UV-I 0 W/m 6,3 km/h (2 Bft)
21.06.2014 23:34 16,2 C 14,4 C 77 % 1017,5 hPa 0,0 l/m 0 min 0 min 0,0 UV-I 0 W/m 6,3 km/h (2 Bft)
21.06.2014 23:36 16,2 C 14,4 C 77 % 1017,5 hPa 0,0 l/m 0 min 0 min 0,0 UV-I 0 W/m 6,3 km/h (2 Bft)
21.06.2014 23:38 16,2 C 14,4 C 77 % 1017,5 hPa 0,0 l/m 0 min 0 min 0,0 UV-I 0 W/m 8,4 km/h (2 Bft)
21.06.2014 23:40 16,2 C 14,4 C 77 % 1017,5 hPa 0,0 l/m 0 min 0 min 0,0 UV-I 0 W/m 6,3 km/h (2 Bft)
21.06.2014 23:42 16,2 C 14,4 C 77 % 1017,5 hPa 0,0 l/m 0 min 0 min 0,0 UV-I 0 W/m 6,3 km/h (2 Bft)
21.06.2014 23:44 16,2 C 14,4 C 77 % 1017,5 hPa 0,0 l/m 0 min 0 min 0,0 UV-I 0 W/m 4,2 km/h (1 Bft)
21.06.2014 23:46 16,2 C 14,4 C 77 % 1017,5 hPa 0,0 l/m 0 min 0 min 0,0 UV-I 0 W/m 0,0 km/h (0 Bft)
21.06.2014 23:48 16,2 C 14,4 C 77 % 1017,5 hPa 0,0 l/m 0 min 0 min 0,0 UV-I 0 W/m 0,0 km/h (0 Bft)
21.06.2014 23:50 16,1 C 14,4 C 78 % 1017,5 hPa 0,0 l/m 0 min 0 min 0,0 UV-I 0 W/m 0,0 km/h (0 Bft)
21.06.2014 23:52 16,0 C 13,9 C 78 % 1017,6 hPa 0,0 l/m 0 min 0 min 0,0 UV-I 0 W/m 0,0 km/h (0 Bft)
21.06.2014 23:54 15,9 C 13,9 C 79 % 1017,6 hPa 0,0 l/m 0 min 0 min 0,0 UV-I 0 W/m 0,0 km/h (0 Bft)
21.06.2014 23:56 15,8 C 13,9 C 79 % 1017,6 hPa 0,0 l/m 0 min 0 min 0,0 UV-I 0 W/m 0,0 km/h (0 Bft)
21.06.2014 23:58 15,8 C 13,9 C 79 % 1017,6 hPa 0,0 l/m 0 min 0 min 0,0 UV-I 0 W/m 0,0 km/h (0 Bft)
_ Min-Zeit 05:26 05:30 14:24 19:58 - - - - - 00:00
Minimum _ 9,5 C 7,8 C 55 % 1017,4 hPa - - - - - 0,0 km/h (0 Bft)
_ Max-Zeit 14:18 14:24 06:32 08:06 00:00 05:32 00:00 13:32 13:06 14:16
Maximum _ 21,5 C 28,9 C 97 % 1019,7 hPa 0,0 l/m 2 min 0 min 5,4 UV-I 1273 W/m 23,0 km/h
N-NO (4 Bft)
Durchschnitt _ 15,7 C 15,3 C 77 % 1018,7 hPa #0,0 l/m #8:48 h #0 min. 2,2 UV-I 381 W/m 5,8 km/h (2 Bft)
© 2014 W. Hausmann